Wetterdaten: Donnerstag, 11.12.2014
Datum Zeit Temp. Aussen +5cm Feuchte Auss Luftdruck Regen Sonnenschein Regendauer Solar Windben
11.12.2014 00:00 4,1 C 2,8 C 88 % 1014,3 hPa 0,0 l/m 0 min 0 min 0 W/m 14,6 km/h (3 Bft)
11.12.2014 00:02 4,1 C 2,8 C 88 % 1014,2 hPa 0,0 l/m 0 min 0 min 0 W/m 18,8 km/h (3 Bft)
11.12.2014 00:05 4,1 C 2,8 C 88 % 1014,1 hPa 0,0 l/m 0 min 0 min 0 W/m 14,6 km/h (3 Bft)
11.12.2014 00:08 4,1 C 2,8 C 88 % 1014,1 hPa 0,0 l/m 0 min 0 min 0 W/m 16,7 km/h (3 Bft)
11.12.2014 00:10 4,1 C 2,8 C 88 % 1014,1 hPa 0,0 l/m 0 min 0 min 0 W/m 23,0 km/h (4 Bft)
11.12.2014 00:12 4,1 C 2,8 C 88 % 1014,1 hPa 0,0 l/m 0 min 0 min 0 W/m 23,0 km/h (4 Bft)
11.12.2014 00:14 4,2 C 2,8 C 88 % 1014,0 hPa 0,0 l/m 0 min 0 min 0 W/m 16,7 km/h (3 Bft)
11.12.2014 00:16 4,2 C 2,8 C 88 % 1014,1 hPa 0,0 l/m 0 min 0 min 0 W/m 18,8 km/h (3 Bft)
11.12.2014 00:18 4,2 C 2,8 C 88 % 1014,1 hPa 0,0 l/m 0 min 0 min 0 W/m 25,1 km/h (4 Bft)
11.12.2014 00:20 4,2 C 2,8 C 88 % 1014,0 hPa 0,0 l/m 0 min 0 min 0 W/m 20,9 km/h (4 Bft)
11.12.2014 00:22 4,2 C 2,8 C 88 % 1014,0 hPa 0,0 l/m 0 min 0 min 0 W/m 14,6 km/h (3 Bft)
11.12.2014 00:24 4,2 C 2,8 C 89 % 1013,9 hPa 0,0 l/m 0 min 0 min 0 W/m 25,1 km/h (4 Bft)
11.12.2014 00:26 4,2 C 2,8 C 89 % 1013,9 hPa 0,0 l/m 0 min 0 min 0 W/m 18,8 km/h (3 Bft)
11.12.2014 00:28 4,2 C 2,8 C 89 % 1013,9 hPa 0,0 l/m 0 min 0 min 0 W/m 18,8 km/h (3 Bft)
11.12.2014 00:30 4,2 C 2,8 C 89 % 1013,9 hPa 0,0 l/m 0 min 0 min 0 W/m 18,8 km/h (3 Bft)
11.12.2014 00:32 4,2 C 2,8 C 89 % 1013,9 hPa 0,0 l/m 0 min 0 min 0 W/m 14,6 km/h (3 Bft)
11.12.2014 00:34 4,2 C 2,8 C 89 % 1013,9 hPa 0,0 l/m 0 min 0 min 0 W/m 20,9 km/h (4 Bft)
11.12.2014 00:36 4,2 C 2,8 C 89 % 1013,9 hPa 0,0 l/m 0 min 0 min 0 W/m 25,1 km/h (4 Bft)
11.12.2014 00:38 4,2 C 2,8 C 89 % 1013,8 hPa 0,0 l/m 0 min 0 min 0 W/m 16,7 km/h (3 Bft)
11.12.2014 00:40 4,2 C 2,8 C 89 % 1013,8 hPa 0,0 l/m 0 min 0 min 0 W/m 14,6 km/h (3 Bft)
11.12.2014 00:42 4,2 C 2,8 C 89 % 1013,9 hPa 0,0 l/m 0 min 0 min 0 W/m 16,7 km/h (3 Bft)
11.12.2014 00:44 4,2 C 2,8 C 89 % 1013,8 hPa 0,0 l/m 0 min 0 min 0 W/m 23,0 km/h (4 Bft)
11.12.2014 00:46 4,2 C 2,8 C 89 % 1013,8 hPa 0,0 l/m 0 min 0 min 0 W/m 14,6 km/h (3 Bft)
11.12.2014 00:48 4,2 C 2,8 C 89 % 1013,7 hPa 0,0 l/m 0 min 0 min 0 W/m 16,7 km/h (3 Bft)
11.12.2014 00:50 4,2 C 2,8 C 89 % 1013,7 hPa 0,0 l/m 0 min 0 min 0 W/m 20,9 km/h (4 Bft)
11.12.2014 00:52 4,2 C 2,8 C 90 % 1013,7 hPa 0,0 l/m 0 min 0 min 0 W/m 16,7 km/h (3 Bft)
11.12.2014 00:54 4,3 C 2,8 C 90 % 1013,7 hPa 0,0 l/m 0 min 0 min 0 W/m 18,8 km/h (3 Bft)
11.12.2014 00:56 4,2 C 2,8 C 90 % 1013,7 hPa 0,0 l/m 0 min 0 min 0 W/m 14,6 km/h (3 Bft)
11.12.2014 00:58 4,2 C 2,8 C 90 % 1013,6 hPa 0,0 l/m 0 min 0 min 0 W/m 20,9 km/h (4 Bft)
11.12.2014 01:00 4,2 C 2,8 C 90 % 1013,6 hPa 0,0 l/m 0 min 0 min 0 W/m 18,8 km/h (3 Bft)
11.12.2014 01:02 4,2 C 2,8 C 90 % 1013,5 hPa 0,0 l/m 0 min 0 min 0 W/m 16,7 km/h (3 Bft)
11.12.2014 01:04 4,2 C 2,8 C 90 % 1013,5 hPa 0,0 l/m 0 min 0 min 0 W/m 20,9 km/h (4 Bft)
11.12.2014 01:06 4,2 C 2,8 C 90 % 1013,4 hPa 0,0 l/m 0 min 0 min 0 W/m 18,8 km/h (3 Bft)
11.12.2014 01:08 4,3 C 2,8 C 90 % 1013,4 hPa 0,0 l/m 0 min 0 min 0 W/m 16,7 km/h (3 Bft)
11.12.2014 01:10 4,3 C 2,8 C 90 % 1013,5 hPa 0,0 l/m 0 min 0 min 0 W/m 18,8 km/h (3 Bft)
11.12.2014 01:12 4,3 C 2,8 C 90 % 1013,5 hPa 0,0 l/m 0 min 0 min 0 W/m 20,9 km/h (4 Bft)
11.12.2014 01:14 4,3 C 2,8 C 90 % 1013,4 hPa 0,0 l/m 0 min 0 min 0 W/m 25,1 km/h (4 Bft)
11.12.2014 01:16 4,3 C 2,8 C 90 % 1013,4 hPa 0,0 l/m 0 min 0 min 0 W/m 16,7 km/h (3 Bft)
11.12.2014 01:18 4,3 C 2,8 C 90 % 1013,4 hPa 0,0 l/m 0 min 0 min 0 W/m 12,6 km/h (3 Bft)
11.12.2014 01:20 4,3 C 2,8 C 91 % 1013,4 hPa 0,0 l/m 0 min 0 min 0 W/m 16,7 km/h (3 Bft)
11.12.2014 01:22 4,3 C 2,8 C 91 % 1013,3 hPa 0,0 l/m 0 min 0 min 0 W/m 18,8 km/h (3 Bft)
11.12.2014 01:24 4,3 C 2,8 C 91 % 1013,3 hPa 0,0 l/m 0 min 0 min 0 W/m 18,8 km/h (3 Bft)
11.12.2014 01:26 4,3 C 2,8 C 91 % 1013,4 hPa 0,0 l/m 0 min 0 min 0 W/m 16,7 km/h (3 Bft)
11.12.2014 01:28 4,3 C 2,8 C 91 % 1013,2 hPa 0,0 l/m 0 min 0 min 0 W/m 16,7 km/h (3 Bft)
11.12.2014 01:30 4,3 C 2,8 C 91 % 1013,2 hPa 0,0 l/m 0 min 0 min 0 W/m 18,8 km/h (3 Bft)
11.12.2014 01:32 4,3 C 2,8 C 91 % 1013,1 hPa 0,0 l/m 0 min 0 min 0 W/m 16,7 km/h (3 Bft)
11.12.2014 01:34 4,3 C 2,8 C 91 % 1013,1 hPa 0,0 l/m 0 min 0 min 0 W/m 16,7 km/h (3 Bft)
11.12.2014 01:36 4,3 C 2,8 C 91 % 1013,1 hPa 0,0 l/m 0 min 0 min 0 W/m 23,0 km/h (4 Bft)
11.12.2014 01:38 4,3 C 2,8 C 91 % 1013,1 hPa 0,0 l/m 0 min 0 min 0 W/m 23,0 km/h (4 Bft)
11.12.2014 01:40 4,3 C 2,8 C 91 % 1013,1 hPa 0,0 l/m 0 min 0 min 0 W/m 18,8 km/h (3 Bft)
11.12.2014 01:42 4,3 C 2,8 C 91 % 1013,0 hPa 0,0 l/m 0 min 0 min 0 W/m 18,8 km/h (3 Bft)
11.12.2014 01:44 4,3 C 2,8 C 91 % 1013,0 hPa 0,0 l/m 0 min 0 min 0 W/m 23,0 km/h (4 Bft)
11.12.2014 01:46 4,3 C 2,8 C 91 % 1013,0 hPa 0,0 l/m 0 min 0 min 0 W/m 23,0 km/h (4 Bft)
11.12.2014 01:48 4,3 C 2,8 C 91 % 1013,0 hPa 0,0 l/m 0 min 0 min 0 W/m 23,0 km/h (4 Bft)
11.12.2014 01:50 4,4 C 2,8 C 91 % 1013,0 hPa 0,0 l/m 0 min 0 min 0 W/m 18,8 km/h (3 Bft)
11.12.2014 01:52 4,4 C 2,8 C 91 % 1013,0 hPa 0,0 l/m 0 min 0 min 0 W/m 23,0 km/h (4 Bft)
11.12.2014 01:54 4,4 C 2,8 C 91 % 1012,8 hPa 0,0 l/m 0 min 0 min 0 W/m 16,7 km/h (3 Bft)
11.12.2014 01:56 4,4 C 2,8 C 91 % 1012,9 hPa 0,0 l/m 0 min 0 min 0 W/m 18,8 km/h (3 Bft)
11.12.2014 01:58 4,4 C 2,8 C 91 % 1012,8 hPa 0,0 l/m 0 min 0 min 0 W/m 18,8 km/h (3 Bft)
11.12.2014 02:00 4,4 C 2,8 C 91 % 1012,8 hPa 0,0 l/m 0 min 0 min 0 W/m 14,6 km/h (3 Bft)
11.12.2014 02:02 4,4 C 2,8 C 91 % 1012,8 hPa 0,0 l/m 0 min 0 min 0 W/m 18,8 km/h (3 Bft)
11.12.2014 02:04 4,4 C 2,8 C 91 % 1012,8 hPa 0,0 l/m 0 min 0 min 0 W/m 18,8 km/h (3 Bft)
11.12.2014 02:06 4,4 C 2,8 C 92 % 1012,8 hPa 0,0 l/m 0 min 0 min 0 W/m 14,6 km/h (3 Bft)
11.12.2014 02:08 4,4 C 2,8 C 92 % 1012,8 hPa 0,0 l/m 0 min 0 min 0 W/m 27,2 km/h (4 Bft)
11.12.2014 02:10 4,4 C 2,8 C 92 % 1012,8 hPa 0,0 l/m 0 min 0 min 0 W/m 16,7 km/h (3 Bft)
11.12.2014 02:12 4,4 C 3,3 C 92 % 1012,8 hPa 0,0 l/m 0 min 0 min 0 W/m 29,3 km/h (5 Bft)
11.12.2014 02:14 4,4 C 2,8 C 92 % 1012,8 hPa 0,0 l/m 0 min 0 min 0 W/m 18,8 km/h (3 Bft)
11.12.2014 02:16 4,4 C 2,8 C 92 % 1012,8 hPa 0,0 l/m 0 min 0 min 0 W/m 14,6 km/h (3 Bft)
11.12.2014 02:18 4,4 C 2,8 C 92 % 1012,7 hPa 0,0 l/m 0 min 0 min 0 W/m 14,6 km/h (3 Bft)
11.12.2014 02:20 4,4 C 2,8 C 92 % 1012,7 hPa 0,0 l/m 0 min 0 min 0 W/m 16,7 km/h (3 Bft)
11.12.2014 02:22 4,4 C 2,8 C 92 % 1012,7 hPa 0,0 l/m 0 min 0 min 0 W/m 23,0 km/h (4 Bft)
11.12.2014 02:24 4,4 C 2,8 C 92 % 1012,8 hPa 0,0 l/m 0 min 0 min 0 W/m 20,9 km/h (4 Bft)
11.12.2014 02:26 4,4 C 2,8 C 92 % 1012,7 hPa 0,0 l/m 0 min 0 min 0 W/m 20,9 km/h (4 Bft)
11.12.2014 02:28 4,4 C 2,8 C 92 % 1012,7 hPa 0,0 l/m 0 min 0 min 0 W/m 16,7 km/h (3 Bft)
11.12.2014 02:30 4,4 C 2,8 C 92 % 1012,7 hPa 0,0 l/m 0 min 0 min 0 W/m 14,6 km/h (3 Bft)
11.12.2014 02:32 4,4 C 3,3 C 92 % 1012,7 hPa 0,0 l/m 0 min 0 min 0 W/m 25,1 km/h (4 Bft)
11.12.2014 02:34 4,4 C 3,3 C 92 % 1012,7 hPa 0,0 l/m 0 min 0 min 0 W/m 23,0 km/h (4 Bft)
11.12.2014 02:36 4,4 C 3,3 C 92 % 1012,7 hPa 0,0 l/m 0 min 0 min 0 W/m 23,0 km/h (4 Bft)
11.12.2014 02:38 4,4 C 3,3 C 92 % 1012,7 hPa 0,0 l/m 0 min 0 min 0 W/m 25,1 km/h (4 Bft)
11.12.2014 02:40 4,4 C 3,3 C 92 % 1012,5 hPa 0,0 l/m 0 min 0 min 0 W/m 23,0 km/h (4 Bft)
11.12.2014 02:42 4,4 C 3,3 C 92 % 1012,5 hPa 0,0 l/m 0 min 0 min 0 W/m 27,2 km/h (4 Bft)
11.12.2014 02:44 4,4 C 3,3 C 92 % 1012,5 hPa 0,0 l/m 0 min 0 min 0 W/m 25,1 km/h (4 Bft)
11.12.2014 02:46 4,5 C 3,3 C 92 % 1012,5 hPa 0,0 l/m 0 min 0 min 0 W/m 20,9 km/h (4 Bft)
11.12.2014 02:48 4,5 C 3,3 C 92 % 1012,5 hPa 0,0 l/m 0 min 0 min 0 W/m 27,2 km/h (4 Bft)
11.12.2014 02:50 4,5 C 3,3 C 92 % 1012,5 hPa 0,0 l/m 0 min 0 min 0 W/m 20,9 km/h (4 Bft)
11.12.2014 02:52 4,5 C 3,3 C 92 % 1012,4 hPa 0,0 l/m 0 min 0 min 0 W/m 20,9 km/h (4 Bft)
11.12.2014 02:54 4,5 C 3,3 C 92 % 1012,4 hPa 0,0 l/m 0 min 0 min 0 W/m 18,8 km/h (3 Bft)
11.12.2014 02:56 4,5 C 3,3 C 92 % 1012,4 hPa 0,0 l/m 0 min 0 min 0 W/m 20,9 km/h (4 Bft)
11.12.2014 02:58 4,5 C 3,3 C 92 % 1012,4 hPa 0,0 l/m 0 min 0 min 0 W/m 23,0 km/h (4 Bft)
11.12.2014 03:00 4,5 C 3,3 C 92 % 1012,4 hPa 0,0 l/m 0 min 0 min 0 W/m 25,1 km/h (4 Bft)
11.12.2014 03:02 4,5 C 3,3 C 92 % 1012,4 hPa 0,0 l/m 0 min 0 min 0 W/m 23,0 km/h (4 Bft)
11.12.2014 03:04 4,6 C 3,3 C 92 % 1012,2 hPa 0,0 l/m 0 min 0 min 0 W/m 27,2 km/h (4 Bft)
11.12.2014 03:06 4,6 C 3,3 C 92 % 1012,1 hPa 0,0 l/m 0 min 0 min 0 W/m 20,9 km/h (4 Bft)
11.12.2014 03:08 4,6 C 3,3 C 92 % 1012,1 hPa 0,0 l/m 0 min 0 min 0 W/m 25,1 km/h (4 Bft)
11.12.2014 03:10 4,6 C 3,3 C 92 % 1012,0 hPa 0,0 l/m 0 min 0 min 0 W/m 20,9 km/h (4 Bft)
11.12.2014 03:12 4,6 C 3,3 C 92 % 1012,0 hPa 0,0 l/m 0 min 0 min 0 W/m 23,0 km/h (4 Bft)
11.12.2014 03:14 4,6 C 3,3 C 92 % 1012,0 hPa 0,0 l/m 0 min 0 min 0 W/m 27,2 km/h (4 Bft)
11.12.2014 03:16 4,6 C 3,3 C 92 % 1011,9 hPa 0,0 l/m 0 min 0 min 0 W/m 20,9 km/h (4 Bft)
11.12.2014 03:18 4,6 C 3,3 C 92 % 1011,9 hPa 0,0 l/m 0 min 0 min 0 W/m 20,9 km/h (4 Bft)
11.12.2014 03:20 4,6 C 3,3 C 92 % 1011,9 hPa 0,0 l/m 0 min 0 min 0 W/m 27,2 km/h (4 Bft)
11.12.2014 03:22 4,6 C 3,3 C 92 % 1011,8 hPa 0,0 l/m 0 min 0 min 0 W/m 25,1 km/h (4 Bft)
11.12.2014 03:24 4,6 C 3,3 C 92 % 1011,8 hPa 0,0 l/m 0 min 0 min 0 W/m 29,3 km/h (5 Bft)
11.12.2014 03:26 4,6 C 3,3 C 92 % 1011,8 hPa 0,0 l/m 0 min 0 min 0 W/m 25,1 km/h (4 Bft)
11.12.2014 03:28 4,6 C 3,3 C 92 % 1011,8 hPa 0,0 l/m 0 min 0 min 0 W/m 18,8 km/h (3 Bft)
11.12.2014 03:30 4,6 C 3,3 C 92 % 1011,6 hPa 0,0 l/m 0 min 0 min 0 W/m 31,4 km/h (5 Bft)
11.12.2014 03:32 4,6 C 3,3 C 92 % 1011,6 hPa 0,0 l/m 0 min 0 min 0 W/m 29,3 km/h (5 Bft)
11.12.2014 03:34 4,6 C 3,3 C 92 % 1011,7 hPa 0,0 l/m 0 min 0 min 0 W/m 27,2 km/h (4 Bft)
11.12.2014 03:36 4,7 C 3,3 C 92 % 1011,5 hPa 0,0 l/m 0 min 0 min 0 W/m 31,4 km/h (5 Bft)
11.12.2014 03:38 4,7 C 3,3 C 92 % 1011,5 hPa 0,0 l/m 0 min 0 min 0 W/m 37,7 km/h (5 Bft)
11.12.2014 03:40 4,7 C 3,3 C 92 % 1011,4 hPa 0,0 l/m 0 min 0 min 0 W/m 16,7 km/h (3 Bft)
11.12.2014 03:42 4,7 C 3,3 C 92 % 1011,4 hPa 0,0 l/m 0 min 0 min 0 W/m 16,7 km/h (3 Bft)
11.12.2014 03:44 4,7 C 3,3 C 92 % 1011,4 hPa 0,0 l/m 0 min 0 min 0 W/m 25,1 km/h (4 Bft)
11.12.2014 03:46 4,7 C 3,3 C 92 % 1011,3 hPa 0,0 l/m 0 min 0 min 0 W/m 35,6 km/h (5 Bft)
11.12.2014 03:48 4,7 C 3,3 C 92 % 1011,4 hPa 0,0 l/m 0 min 0 min 0 W/m 23,0 km/h (4 Bft)
11.12.2014 03:50 4,7 C 3,3 C 92 % 1011,3 hPa 0,0 l/m 0 min 0 min 0 W/m 20,9 km/h (4 Bft)
11.12.2014 03:52 4,7 C 3,3 C 92 % 1011,2 hPa 0,0 l/m 0 min 0 min 0 W/m 31,4 km/h (5 Bft)
11.12.2014 03:54 4,7 C 3,3 C 92 % 1011,2 hPa 0,0 l/m 0 min 0 min 0 W/m 31,4 km/h (5 Bft)
11.12.2014 03:56 4,7 C 3,3 C 92 % 1011,1 hPa 0,0 l/m 0 min 0 min 0 W/m 25,1 km/h (4 Bft)
11.12.2014 03:58 4,7 C 3,3 C 92 % 1011,0 hPa 0,0 l/m 0 min 0 min 0 W/m 23,0 km/h (4 Bft)
11.12.2014 04:00 4,7 C 3,3 C 92 % 1011,0 hPa 0,0 l/m 0 min 0 min 0 W/m 23,0 km/h (4 Bft)
11.12.2014 04:02 4,7 C 3,3 C 92 % 1011,1 hPa 0,0 l/m 0 min 0 min 0 W/m 18,8 km/h (3 Bft)
11.12.2014 04:04 4,7 C 3,3 C 92 % 1011,1 hPa 0,0 l/m 0 min 0 min 0 W/m 25,1 km/h (4 Bft)
11.12.2014 04:06 4,7 C 3,3 C 92 % 1011,2 hPa 0,0 l/m 0 min 0 min 0 W/m 20,9 km/h (4 Bft)
11.12.2014 04:08 4,7 C 3,3 C 92 % 1011,0 hPa 0,0 l/m 0 min 0 min 0 W/m 18,8 km/h (3 Bft)
11.12.2014 04:10 4,7 C 3,3 C 92 % 1011,1 hPa 0,0 l/m 0 min 0 min 0 W/m 29,3 km/h (5 Bft)
11.12.2014 04:12 4,8 C 3,3 C 92 % 1011,0 hPa 0,0 l/m 0 min 0 min 0 W/m 23,0 km/h (4 Bft)
11.12.2014 04:14 4,7 C 3,3 C 92 % 1010,9 hPa 0,0 l/m 0 min 0 min 0 W/m 25,1 km/h (4 Bft)
11.12.2014 04:16 4,8 C 3,3 C 92 % 1010,9 hPa 0,0 l/m 0 min 0 min 0 W/m 25,1 km/h (4 Bft)
11.12.2014 04:18 4,8 C 3,3 C 92 % 1010,8 hPa 0,0 l/m 0 min 0 min 0 W/m 23,0 km/h (4 Bft)
11.12.2014 04:20 4,8 C 3,3 C 92 % 1010,8 hPa 0,0 l/m 0 min 0 min 0 W/m 31,4 km/h (5 Bft)
11.12.2014 04:22 4,8 C 3,3 C 92 % 1010,8 hPa 0,0 l/m 0 min 0 min 0 W/m 27,2 km/h (4 Bft)
11.12.2014 04:24 4,8 C 3,3 C 92 % 1010,8 hPa 0,0 l/m 0 min 0 min 0 W/m 27,2 km/h (4 Bft)
11.12.2014 04:26 4,8 C 3,3 C 92 % 1010,8 hPa 0,0 l/m 0 min 0 min 0 W/m 27,2 km/h (4 Bft)
11.12.2014 04:28 4,8 C 3,9 C 92 % 1010,8 hPa 0,0 l/m 0 min 0 min 0 W/m 27,2 km/h (4 Bft)
11.12.2014 04:30 4,8 C 3,9 C 92 % 1010,7 hPa 0,0 l/m 0 min 0 min 0 W/m 27,2 km/h (4 Bft)
11.12.2014 04:32 4,9 C 3,9 C 92 % 1010,7 hPa 0,0 l/m 0 min 0 min 0 W/m 29,3 km/h (5 Bft)
11.12.2014 04:34 4,9 C 3,9 C 92 % 1010,7 hPa 0,0 l/m 0 min 0 min 0 W/m 33,5 km/h (5 Bft)
11.12.2014 04:36 4,9 C 3,9 C 92 % 1010,7 hPa 0,0 l/m 0 min 0 min 0 W/m 23,0 km/h (4 Bft)
11.12.2014 04:38 4,9 C 3,9 C 92 % 1010,6 hPa 0,0 l/m 0 min 0 min 0 W/m 20,9 km/h (4 Bft)
11.12.2014 04:40 5,0 C 3,9 C 92 % 1010,5 hPa 0,0 l/m 0 min 0 min 0 W/m 27,2 km/h (4 Bft)
11.12.2014 04:42 5,0 C 3,9 C 92 % 1010,5 hPa 0,0 l/m 0 min 0 min 0 W/m 31,4 km/h (5 Bft)
11.12.2014 04:44 5,0 C 3,9 C 92 % 1010,4 hPa 0,0 l/m 0 min 0 min 0 W/m 29,3 km/h (5 Bft)
11.12.2014 04:46 5,1 C 3,9 C 92 % 1010,4 hPa 0,0 l/m 0 min 0 min 0 W/m 27,2 km/h (4 Bft)
11.12.2014 04:48 5,1 C 3,9 C 92 % 1010,4 hPa 0,0 l/m 0 min 0 min 0 W/m 29,3 km/h (5 Bft)
11.12.2014 04:50 5,1 C 3,9 C 92 % 1010,4 hPa 0,0 l/m 0 min 0 min 0 W/m 37,7 km/h (5 Bft)
11.12.2014 04:52 5,2 C 3,9 C 92 % 1010,4 hPa 0,0 l/m 0 min 0 min 0 W/m 35,6 km/h (5 Bft)
11.12.2014 04:54 5,2 C 3,9 C 91 % 1010,4 hPa 0,0 l/m 0 min 0 min 0 W/m 27,2 km/h (4 Bft)
11.12.2014 04:56 5,2 C 3,9 C 92 % 1010,4 hPa 0,0 l/m 0 min 0 min 0 W/m 29,3 km/h (5 Bft)
11.12.2014 04:58 5,2 C 3,9 C 91 % 1010,2 hPa 0,0 l/m 0 min 0 min 0 W/m 27,2 km/h (4 Bft)
11.12.2014 05:00 5,3 C 3,9 C 91 % 1010,3 hPa 0,0 l/m 0 min 0 min 0 W/m 20,9 km/h (4 Bft)
11.12.2014 05:02 5,3 C 3,9 C 91 % 1010,1 hPa 0,0 l/m 0 min 0 min 0 W/m 23,0 km/h (4 Bft)
11.12.2014 05:04 5,3 C 4,4 C 91 % 1010,1 hPa 0,0 l/m 0 min 0 min 0 W/m 25,1 km/h (4 Bft)
11.12.2014 05:06 5,3 C 4,4 C 91 % 1010,1 hPa 0,0 l/m 0 min 0 min 0 W/m 37,7 km/h (5 Bft)
11.12.2014 05:08 5,4 C 4,4 C 91 % 1010,1 hPa 0,0 l/m 0 min 0 min 0 W/m 37,7 km/h (5 Bft)
11.12.2014 05:10 5,4 C 4,4 C 91 % 1010,1 hPa 0,0 l/m 0 min 0 min 0 W/m 31,4 km/h (5 Bft)
11.12.2014 05:12 5,4 C 4,4 C 91 % 1010,1 hPa 0,0 l/m 0 min 0 min 0 W/m 35,6 km/h (5 Bft)
11.12.2014 05:14 5,4 C 4,4 C 91 % 1010,1 hPa 0,0 l/m 0 min 0 min 0 W/m 29,3 km/h (5 Bft)
11.12.2014 05:16 5,5 C 4,4 C 90 % 1010,0 hPa 0,0 l/m 0 min 0 min 0 W/m 27,2 km/h (4 Bft)
11.12.2014 05:18 5,5 C 4,4 C 90 % 1010,1 hPa 0,0 l/m 0 min 0 min 0 W/m 35,6 km/h (5 Bft)
11.12.2014 05:20 5,6 C 4,4 C 90 % 1010,0 hPa 0,0 l/m 0 min 0 min 0 W/m 33,5 km/h (5 Bft)
11.12.2014 05:22 5,6 C 4,4 C 90 % 1010,0 hPa 0,0 l/m 0 min 0 min 0 W/m 35,6 km/h (5 Bft)
11.12.2014 05:24 5,6 C 4,4 C 90 % 1010,1 hPa 0,0 l/m 0 min 0 min 0 W/m 23,0 km/h (4 Bft)
11.12.2014 05:26 5,6 C 4,4 C 90 % 1010,0 hPa 0,0 l/m 0 min 0 min 0 W/m 27,2 km/h (4 Bft)
11.12.2014 05:28 5,6 C 4,4 C 90 % 1010,0 hPa 0,0 l/m 0 min 0 min 0 W/m 27,2 km/h (4 Bft)
11.12.2014 05:30 5,6 C 4,4 C 90 % 1010,0 hPa 0,0 l/m 0 min 0 min 0 W/m 37,7 km/h (5 Bft)
11.12.2014 05:32 5,6 C 4,4 C 90 % 1009,9 hPa 0,0 l/m 0 min 0 min 0 W/m 35,6 km/h (5 Bft)
11.12.2014 05:34 5,6 C 4,4 C 90 % 1010,0 hPa 0,0 l/m 0 min 0 min 0 W/m 33,5 km/h (5 Bft)
11.12.2014 05:36 5,7 C 4,4 C 89 % 1010,0 hPa 0,0 l/m 0 min 0 min 0 W/m 33,5 km/h (5 Bft)
11.12.2014 05:38 5,7 C 4,4 C 89 % 1009,9 hPa 0,0 l/m 0 min 0 min 0 W/m 20,9 km/h (4 Bft)
11.12.2014 05:40 5,7 C 4,4 C 89 % 1009,9 hPa 0,0 l/m 0 min 0 min 0 W/m 23,0 km/h (4 Bft)
11.12.2014 05:42 5,7 C 4,4 C 89 % 1009,9 hPa 0,0 l/m 0 min 0 min 0 W/m 35,6 km/h (5 Bft)
11.12.2014 05:44 5,7 C 4,4 C 89 % 1009,9 hPa 0,0 l/m 0 min 0 min 0 W/m 55,8 km/h (7 Bft)
11.12.2014 05:46 5,7 C 4,4 C 89 % 1010,0 hPa 0,0 l/m 0 min 0 min 0 W/m 52,3 km/h (7 Bft)
11.12.2014 05:48 5,7 C 4,4 C 89 % 1009,9 hPa 0,0 l/m 0 min 0 min 0 W/m 50,2 km/h (7 Bft)
11.12.2014 05:50 5,8 C 4,4 C 89 % 1009,7 hPa 0,0 l/m 0 min 0 min 0 W/m 43,9 km/h (6 Bft)
11.12.2014 05:52 5,8 C 4,4 C 89 % 1009,8 hPa 0,0 l/m 0 min 0 min 0 W/m 33,5 km/h (5 Bft)
11.12.2014 05:54 5,8 C 4,4 C 89 % 1009,8 hPa 0,0 l/m 0 min 0 min 0 W/m 39,7 km/h (6 Bft)
11.12.2014 05:56 5,8 C 4,4 C 88 % 1009,7 hPa 0,0 l/m 0 min 0 min 0 W/m 35,6 km/h (5 Bft)
11.12.2014 05:58 5,8 C 4,4 C 88 % 1009,8 hPa 0,0 l/m 0 min 0 min 0 W/m 35,6 km/h (5 Bft)
11.12.2014 06:00 5,8 C 4,4 C 88 % 1009,7 hPa 0,0 l/m 0 min 0 min 0 W/m 39,7 km/h (6 Bft)
11.12.2014 06:02 5,8 C 4,4 C 88 % 1009,7 hPa 0,0 l/m 0 min 0 min 0 W/m 41,8 km/h (6 Bft)
11.12.2014 06:05 5,9 C 4,4 C 88 % 1009,7 hPa 0,0 l/m 0 min 0 min 0 W/m 31,4 km/h (5 Bft)
11.12.2014 06:08 5,9 C 4,4 C 88 % 1009,7 hPa 0,0 l/m 0 min 0 min 0 W/m 33,5 km/h (5 Bft)
11.12.2014 06:10 5,9 C 4,4 C 88 % 1009,6 hPa 0,0 l/m 0 min 0 min 0 W/m 33,5 km/h (5 Bft)
11.12.2014 06:12 5,9 C 4,4 C 88 % 1009,5 hPa 0,0 l/m 0 min 0 min 0 W/m 35,6 km/h (5 Bft)
11.12.2014 06:14 5,9 C 4,4 C 88 % 1009,7 hPa 0,0 l/m 0 min 0 min 0 W/m 33,5 km/h (5 Bft)
11.12.2014 06:16 5,8 C 4,4 C 88 % 1009,7 hPa 0,0 l/m 0 min 0 min 0 W/m 46,0 km/h (6 Bft)
11.12.2014 06:18 5,8 C 4,4 C 88 % 1009,7 hPa 0,0 l/m 0 min 0 min 0 W/m 35,6 km/h (5 Bft)
11.12.2014 06:20 5,8 C 4,4 C 88 % 1009,7 hPa 0,0 l/m 0 min 0 min 0 W/m 37,7 km/h (5 Bft)
11.12.2014 06:22 5,8 C 4,4 C 88 % 1009,7 hPa 0,0 l/m 0 min 0 min 0 W/m 37,7 km/h (5 Bft)
11.12.2014 06:24 5,9 C 4,4 C 88 % 1009,6 hPa 0,0 l/m 0 min 0 min 0 W/m 25,1 km/h (4 Bft)
11.12.2014 06:26 5,9 C 4,4 C 88 % 1009,5 hPa 0,0 l/m 0 min 0 min 0 W/m 43,9 km/h (6 Bft)
11.12.2014 06:28 5,9 C 4,4 C 88 % 1009,5 hPa 0,0 l/m 0 min 0 min 0 W/m 39,7 km/h (6 Bft)
11.12.2014 06:30 5,9 C 4,4 C 88 % 1009,3 hPa 0,0 l/m 0 min 0 min 0 W/m 35,6 km/h (5 Bft)
11.12.2014 06:32 5,9 C 4,4 C 88 % 1009,3 hPa 0,0 l/m 0 min 0 min 0 W/m 35,6 km/h (5 Bft)
11.12.2014 06:34 5,9 C 4,4 C 88 % 1009,3 hPa 0,0 l/m 0 min 0 min 0 W/m 35,6 km/h (5 Bft)
11.12.2014 06:36 5,9 C 4,4 C 88 % 1009,3 hPa 0,0 l/m 0 min 0 min 0 W/m 33,5 km/h (5 Bft)
11.12.2014 06:38 5,9 C 4,4 C 88 % 1009,2 hPa 0,0 l/m 0 min 0 min 0 W/m 33,5 km/h (5 Bft)
11.12.2014 06:40 5,9 C 4,4 C 88 % 1009,3 hPa 0,0 l/m 0 min 0 min 0 W/m 37,7 km/h (5 Bft)
11.12.2014 06:42 5,9 C 4,4 C 88 % 1009,4 hPa 0,0 l/m 0 min 0 min 0 W/m 43,9 km/h (6 Bft)
11.12.2014 06:44 5,9 C 4,4 C 88 % 1009,0 hPa 0,0 l/m 0 min 0 min 0 W/m 43,9 km/h (6 Bft)
11.12.2014 06:46 5,9 C 4,4 C 88 % 1009,1 hPa 0,0 l/m 0 min 0 min 0 W/m 46,0 km/h (6 Bft)
11.12.2014 06:48 5,9 C 4,4 C 88 % 1009,1 hPa 0,0 l/m 0 min 0 min 0 W/m 27,2 km/h (4 Bft)
11.12.2014 06:50 5,9 C 4,4 C 88 % 1009,1 hPa 0,0 l/m 0 min 0 min 0 W/m 37,7 km/h (5 Bft)
11.12.2014 06:52 5,9 C 4,4 C 88 % 1009,1 hPa 0,0 l/m 0 min 0 min 0 W/m 41,8 km/h (6 Bft)
11.12.2014 06:54 5,9 C 4,4 C 88 % 1009,1 hPa 0,0 l/m 0 min 0 min 0 W/m 33,5 km/h (5 Bft)
11.12.2014 06:56 5,9 C 4,4 C 88 % 1009,0 hPa 0,0 l/m 0 min 0 min 0 W/m 33,5 km/h (5 Bft)
11.12.2014 06:58 5,9 C 4,4 C 88 % 1008,9 hPa 0,0 l/m 0 min 0 min 0 W/m 33,5 km/h (5 Bft)
11.12.2014 07:00 5,9 C 4,4 C 88 % 1009,0 hPa 0,0 l/m 0 min 0 min 0 W/m 46,0 km/h (6 Bft)
11.12.2014 07:02 5,9 C 4,4 C 88 % 1009,0 hPa 0,0 l/m 0 min 0 min 0 W/m 33,5 km/h (5 Bft)
11.12.2014 07:04 5,9 C 4,4 C 88 % 1009,0 hPa 0,0 l/m 0 min 0 min 0 W/m 50,2 km/h (7 Bft)
11.12.2014 07:06 5,9 C 4,4 C 88 % 1009,0 hPa 0,0 l/m 0 min 0 min 0 W/m 39,7 km/h (6 Bft)
11.12.2014 07:08 5,9 C 4,4 C 88 % 1008,9 hPa 0,0 l/m 0 min 0 min 0 W/m 33,5 km/h (5 Bft)
11.12.2014 07:10 5,9 C 4,4 C 88 % 1009,0 hPa 0,0 l/m 0 min 0 min 0 W/m 37,7 km/h (5 Bft)
11.12.2014 07:12 5,9 C 4,4 C 88 % 1008,9 hPa 0,0 l/m 0 min 0 min 0 W/m 37,7 km/h (5 Bft)
11.12.2014 07:14 5,9 C 4,4 C 88 % 1008,8 hPa 0,0 l/m 0 min 0 min 0 W/m 39,7 km/h (6 Bft)
11.12.2014 07:16 5,9 C 4,4 C 88 % 1008,8 hPa 0,0 l/m 0 min 0 min 0 W/m 50,2 km/h (7 Bft)
11.12.2014 07:18 6,0 C 4,4 C 88 % 1008,8 hPa 0,0 l/m 0 min 0 min 0 W/m 43,9 km/h (6 Bft)
11.12.2014 07:20 6,0 C 4,4 C 88 % 1008,8 hPa 0,0 l/m 0 min 0 min 0 W/m 35,6 km/h (5 Bft)
11.12.2014 07:22 6,0 C 4,4 C 88 % 1008,8 hPa 0,0 l/m 0 min 0 min 0 W/m 27,2 km/h (4 Bft)
11.12.2014 07:24 6,0 C 4,4 C 88 % 1008,7 hPa 0,0 l/m 0 min 0 min 0 W/m 25,1 km/h (4 Bft)
11.12.2014 07:26 6,0 C 4,4 C 88 % 1008,6 hPa 0,0 l/m 0 min 0 min 0 W/m 31,4 km/h (5 Bft)
11.12.2014 07:28 6,0 C 4,4 C 88 % 1008,5 hPa 0,0 l/m 0 min 0 min 0 W/m 35,6 km/h (5 Bft)
11.12.2014 07:30 6,0 C 4,4 C 88 % 1008,5 hPa 0,0 l/m 0 min 0 min 0 W/m 27,2 km/h (4 Bft)
11.12.2014 07:32 6,1 C 5,0 C 88 % 1008,5 hPa 0,0 l/m 0 min 0 min 0 W/m 46,0 km/h (6 Bft)
11.12.2014 07:34 6,1 C 4,4 C 88 % 1008,4 hPa 0,0 l/m 0 min 0 min 0 W/m 29,3 km/h (5 Bft)
11.12.2014 07:36 6,1 C 4,4 C 88 % 1008,4 hPa 0,0 l/m 0 min 0 min 0 W/m 25,1 km/h (4 Bft)
11.12.2014 07:38 6,1 C 4,4 C 88 % 1008,4 hPa 0,0 l/m 0 min 0 min 0 W/m 37,7 km/h (5 Bft)
11.12.2014 07:40 6,1 C 5,0 C 88 % 1008,5 hPa 0,0 l/m 0 min 0 min 0 W/m 43,9 km/h (6 Bft)
11.12.2014 07:42 6,1 C 5,0 C 88 % 1008,5 hPa 0,0 l/m 0 min 0 min 0 W/m 27,2 km/h (4 Bft)
11.12.2014 07:44 6,1 C 5,0 C 88 % 1008,4 hPa 0,0 l/m 0 min 0 min 0 W/m 48,1 km/h (6 Bft)
11.12.2014 07:46 6,1 C 5,0 C 88 % 1008,5 hPa 0,0 l/m 0 min 0 min 0 W/m 39,7 km/h (6 Bft)
11.12.2014 07:48 6,1 C 5,0 C 87 % 1008,6 hPa 0,0 l/m 0 min 0 min 0 W/m 37,7 km/h (5 Bft)
11.12.2014 07:50 6,1 C 5,0 C 87 % 1008,7 hPa 0,0 l/m 0 min 0 min 0 W/m 39,7 km/h (6 Bft)
11.12.2014 07:52 6,2 C 5,0 C 87 % 1008,6 hPa 0,0 l/m 0 min 0 min 0 W/m 35,6 km/h (5 Bft)
11.12.2014 07:54 6,2 C 5,0 C 87 % 1008,5 hPa 0,0 l/m 0 min 0 min 0 W/m 46,0 km/h (6 Bft)
11.12.2014 07:56 6,2 C 5,0 C 88 % 1008,6 hPa 0,0 l/m 0 min 0 min 0 W/m 35,6 km/h (5 Bft)
11.12.2014 07:58 6,2 C 5,0 C 88 % 1008,7 hPa 0,0 l/m 0 min 0 min 0 W/m 46,0 km/h (6 Bft)
11.12.2014 08:00 6,2 C 5,0 C 87 % 1008,6 hPa 0,0 l/m 0 min 0 min 0 W/m 48,1 km/h (6 Bft)
11.12.2014 08:02 6,2 C 5,0 C 87 % 1008,8 hPa 0,0 l/m 0 min 0 min 0 W/m 39,7 km/h (6 Bft)
11.12.2014 08:04 6,2 C 5,0 C 87 % 1008,7 hPa 0,0 l/m 0 min 0 min 0 W/m 31,4 km/h (5 Bft)
11.12.2014 08:06 6,2 C 5,0 C 87 % 1008,6 hPa 0,0 l/m 0 min 0 min 0 W/m 41,8 km/h (6 Bft)
11.12.2014 08:08 6,2 C 5,0 C 87 % 1008,7 hPa 0,0 l/m 0 min 0 min 0 W/m 37,7 km/h (5 Bft)
11.12.2014 08:10 6,2 C 5,0 C 87 % 1008,6 hPa 0,0 l/m 0 min 0 min 0 W/m 37,7 km/h (5 Bft)
11.12.2014 08:12 6,3 C 5,0 C 87 % 1008,5 hPa 0,0 l/m 0 min 0 min 0 W/m 37,7 km/h (5 Bft)
11.12.2014 08:14 6,3 C 5,0 C 87 % 1008,5 hPa 0,0 l/m 0 min 0 min 0 W/m 39,7 km/h (6 Bft)
11.12.2014 08:16 6,3 C 5,0 C 87 % 1008,5 hPa 0,0 l/m 0 min 0 min 0 W/m 37,7 km/h (5 Bft)
11.12.2014 08:18 6,3 C 5,0 C 87 % 1008,5 hPa 0,0 l/m 0 min 0 min 0 W/m 33,5 km/h (5 Bft)
11.12.2014 08:20 6,3 C 5,0 C 87 % 1008,6 hPa 0,0 l/m 0 min 0 min 0 W/m 31,4 km/h (5 Bft)
11.12.2014 08:22 6,3 C 5,0 C 87 % 1008,5 hPa 0,0 l/m 0 min 0 min 0 W/m 35,6 km/h (5 Bft)
11.12.2014 08:24 6,3 C 5,0 C 87 % 1008,3 hPa 0,0 l/m 0 min 0 min 0 W/m 39,7 km/h (6 Bft)
11.12.2014 08:26 6,3 C 5,0 C 87 % 1008,3 hPa 0,0 l/m 0 min 0 min 0 W/m 41,8 km/h (6 Bft)
11.12.2014 08:28 6,3 C 5,0 C 87 % 1008,5 hPa 0,0 l/m 0 min 0 min 0 W/m 43,9 km/h (6 Bft)
11.12.2014 08:30 6,3 C 5,0 C 87 % 1008,4 hPa 0,0 l/m 0 min 0 min 0 W/m 25,1 km/h (4 Bft)
11.12.2014 08:32 6,3 C 5,0 C 87 % 1008,4 hPa 0,0 l/m 0 min 0 min 0 W/m 33,5 km/h (5 Bft)
11.12.2014 08:34 6,4 C 5,0 C 87 % 1008,3 hPa 0,0 l/m 0 min 0 min 0 W/m 39,7 km/h (6 Bft)
11.12.2014 08:36 6,3 C 5,0 C 87 % 1008,3 hPa 0,0 l/m 0 min 0 min 0 W/m 35,6 km/h (5 Bft)
11.12.2014 08:38 6,4 C 5,0 C 87 % 1008,2 hPa 0,0 l/m 0 min 0 min 0 W/m 35,6 km/h (5 Bft)
11.12.2014 08:40 6,4 C 5,0 C 87 % 1008,2 hPa 0,0 l/m 0 min 0 min 0 W/m 43,9 km/h (6 Bft)
11.12.2014 08:42 6,4 C 5,0 C 87 % 1008,2 hPa 0,0 l/m 0 min 0 min 0 W/m 35,6 km/h (5 Bft)
11.12.2014 08:44 6,4 C 5,0 C 87 % 1008,2 hPa 0,0 l/m 0 min 0 min 0 W/m 29,3 km/h (5 Bft)
11.12.2014 08:46 6,4 C 5,0 C 87 % 1008,3 hPa 0,0 l/m 0 min 0 min 0 W/m 37,7 km/h (5 Bft)
11.12.2014 08:48 6,4 C 5,0 C 87 % 1008,2 hPa 0,0 l/m 0 min 0 min 3 W/m 39,7 km/h (6 Bft)
11.12.2014 08:50 6,4 C 5,0 C 87 % 1008,1 hPa 0,0 l/m 0 min 0 min 5 W/m 35,6 km/h (5 Bft)
11.12.2014 08:52 6,4 C 5,0 C 87 % 1008,2 hPa 0,0 l/m 0 min 0 min 5 W/m 27,2 km/h (4 Bft)
11.12.2014 08:54 6,4 C 5,0 C 87 % 1008,2 hPa 0,0 l/m 0 min 0 min 6 W/m 35,6 km/h (5 Bft)
11.12.2014 08:56 6,4 C 5,0 C 87 % 1008,2 hPa 0,0 l/m 0 min 0 min 7 W/m 25,1 km/h (4 Bft)
11.12.2014 08:58 6,4 C 5,0 C 87 % 1008,2 hPa 0,0 l/m 0 min 0 min 8 W/m 37,7 km/h (5 Bft)
11.12.2014 09:00 6,4 C 5,0 C 87 % 1008,3 hPa 0,0 l/m 0 min 0 min 9 W/m 35,6 km/h (5 Bft)
11.12.2014 09:02 6,4 C 5,0 C 87 % 1008,2 hPa 0,0 l/m 0 min 0 min 10 W/m 41,8 km/h (6 Bft)
11.12.2014 09:04 6,4 C 5,0 C 87 % 1008,3 hPa 0,0 l/m 0 min 0 min 11 W/m 35,6 km/h (5 Bft)
11.12.2014 09:06 6,4 C 5,0 C 87 % 1008,3 hPa 0,0 l/m 0 min 0 min 12 W/m 41,8 km/h (6 Bft)
11.12.2014 09:08 6,4 C 5,0 C 87 % 1008,3 hPa 0,0 l/m 0 min 0 min 12 W/m 43,9 km/h (6 Bft)
11.12.2014 09:10 6,4 C 5,0 C 87 % 1008,2 hPa 0,0 l/m 0 min 0 min 14 W/m 31,4 km/h (5 Bft)
11.12.2014 09:12 6,4 C 5,0 C 87 % 1008,2 hPa 0,0 l/m 0 min 0 min 14 W/m 41,8 km/h (6 Bft)
11.12.2014 09:14 6,4 C 5,0 C 86 % 1008,2 hPa 0,0 l/m 0 min 0 min 13 W/m 54,4 km/h (7 Bft)
11.12.2014 09:16 6,4 C 5,0 C 86 % 1008,3 hPa 0,0 l/m 0 min 0 min 12 W/m 41,8 km/h (6 Bft)
11.12.2014 09:18 6,4 C 5,0 C 86 % 1008,4 hPa 0,0 l/m 0 min 0 min 16 W/m 31,4 km/h (5 Bft)
11.12.2014 09:20 6,4 C 5,0 C 86 % 1008,3 hPa 0,0 l/m 0 min 0 min 18 W/m 37,7 km/h (5 Bft)
11.12.2014 09:22 6,4 C 5,0 C 86 % 1008,3 hPa 0,0 l/m 0 min 0 min 17 W/m 25,1 km/h (4 Bft)
11.12.2014 09:24 6,4 C 5,0 C 86 % 1008,3 hPa 0,0 l/m 0 min 0 min 17 W/m 50,2 km/h (7 Bft)
11.12.2014 09:26 6,4 C 5,0 C 86 % 1008,3 hPa 0,0 l/m 0 min 0 min 11 W/m 33,5 km/h (5 Bft)
11.12.2014 09:28 6,4 C 5,0 C 86 % 1008,3 hPa 0,0 l/m 0 min 0 min 9 W/m 39,7 km/h (6 Bft)
11.12.2014 09:30 6,4 C 5,0 C 86 % 1008,3 hPa 0,0 l/m 0 min 0 min 7 W/m 37,7 km/h (5 Bft)
11.12.2014 09:32 6,4 C 5,0 C 86 % 1008,2 hPa 0,0 l/m 0 min 0 min 8 W/m 46,0 km/h (6 Bft)
11.12.2014 09:34 6,4 C 5,0 C 86 % 1008,3 hPa 0,0 l/m 0 min 0 min 15 W/m 39,7 km/h (6 Bft)
11.12.2014 09:36 6,5 C 5,0 C 86 % 1008,2 hPa 0,0 l/m 0 min 0 min 25 W/m 31,4 km/h (5 Bft)
11.12.2014 09:38 6,5 C 5,0 C 86 % 1008,2 hPa 0,0 l/m 0 min 0 min 24 W/m 33,5 km/h (5 Bft)
11.12.2014 09:40 6,5 C 5,0 C 86 % 1008,2 hPa 0,0 l/m 0 min 0 min 25 W/m 31,4 km/h (5 Bft)
11.12.2014 09:42 6,5 C 5,0 C 86 % 1008,1 hPa 0,0 l/m 0 min 0 min 26 W/m 33,5 km/h (5 Bft)
11.12.2014 09:44 6,5 C 5,0 C 87 % 1008,1 hPa 0,0 l/m 0 min 0 min 26 W/m 33,5 km/h (5 Bft)
11.12.2014 09:46 6,5 C 5,0 C 87 % 1008,2 hPa 0,0 l/m 0 min 0 min 27 W/m 35,6 km/h (5 Bft)
11.12.2014 09:48 6,5 C 5,6 C 87 % 1008,1 hPa 0,0 l/m 0 min 0 min 32 W/m 48,1 km/h (6 Bft)
11.12.2014 09:50 6,5 C 5,6 C 87 % 1008,1 hPa 0,0 l/m 0 min 0 min 32 W/m 29,3 km/h (5 Bft)
11.12.2014 09:52 6,5 C 5,6 C 86 % 1008,2 hPa 0,0 l/m 0 min 0 min 33 W/m 29,3 km/h (5 Bft)
11.12.2014 09:54 6,6 C 5,6 C 86 % 1008,2 hPa 0,0 l/m 0 min 0 min 34 W/m 37,7 km/h (5 Bft)
11.12.2014 09:56 6,6 C 5,6 C 86 % 1008,1 hPa 0,0 l/m 0 min 0 min 36 W/m 54,4 km/h (7 Bft)
11.12.2014 09:58 6,6 C 5,6 C 86 % 1008,1 hPa 0,0 l/m 0 min 0 min 39 W/m 33,5 km/h (5 Bft)
11.12.2014 10:00 6,6 C 5,6 C 86 % 1008,1 hPa 0,0 l/m 0 min 0 min 39 W/m 33,5 km/h (5 Bft)
11.12.2014 10:02 6,6 C 5,0 C 87 % 1008,0 hPa 0,0 l/m 0 min 0 min 44 W/m 46,0 km/h (6 Bft)
11.12.2014 10:04 6,6 C 5,0 C 87 % 1008,0 hPa 0,0 l/m 0 min 0 min 42 W/m 41,8 km/h (6 Bft)
11.12.2014 10:06 6,6 C 5,0 C 87 % 1008,0 hPa 0,0 l/m 0 min 0 min 54 W/m 37,7 km/h (5 Bft)
11.12.2014 10:08 6,6 C 5,0 C 87 % 1008,0 hPa 0,0 l/m 0 min 0 min 56 W/m 43,9 km/h (6 Bft)
11.12.2014 10:10 6,6 C 5,0 C 87 % 1008,0 hPa 0,0 l/m 0 min 0 min 56 W/m 50,2 km/h (7 Bft)
11.12.2014 10:12 6,6 C 5,6 C 87 % 1007,9 hPa 0,0 l/m 0 min 0 min 60 W/m 33,5 km/h (5 Bft)
11.12.2014 10:14 6,6 C 5,6 C 87 % 1007,9 hPa 0,0 l/m 0 min 0 min 63 W/m 46,0 km/h (6 Bft)
11.12.2014 10:16 6,6 C 5,6 C 87 % 1007,9 hPa 0,0 l/m 0 min 0 min 59 W/m 29,3 km/h (5 Bft)
11.12.2014 10:18 6,6 C 5,6 C 87 % 1007,9 hPa 0,0 l/m 0 min 0 min 56 W/m 41,8 km/h (6 Bft)
11.12.2014 10:20 6,7 C 5,6 C 87 % 1007,8 hPa 0,0 l/m 0 min 0 min 60 W/m 41,8 km/h (6 Bft)
11.12.2014 10:22 6,7 C 5,6 C 87 % 1007,8 hPa 0,0 l/m 0 min 0 min 62 W/m 29,3 km/h (5 Bft)
11.12.2014 10:24 6,7 C 5,6 C 87 % 1007,8 hPa 0,0 l/m 0 min 0 min 60 W/m 39,7 km/h (6 Bft)
11.12.2014 10:26 6,7 C 5,6 C 87 % 1007,8 hPa 0,0 l/m 0 min 0 min 56 W/m 41,8 km/h (6 Bft)
11.12.2014 10:28 6,7 C 5,6 C 87 % 1007,8 hPa 0,0 l/m 0 min 0 min 41 W/m 43,9 km/h (6 Bft)
11.12.2014 10:30 6,7 C 5,6 C 87 % 1007,9 hPa 0,0 l/m 0 min 0 min 28 W/m 46,0 km/h (6 Bft)
11.12.2014 10:32 6,7 C 5,6 C 87 % 1007,8 hPa 0,0 l/m 0 min 0 min 30 W/m 43,9 km/h (6 Bft)
11.12.2014 10:34 6,7 C 5,6 C 87 % 1007,8 hPa 0,0 l/m 0 min 0 min 36 W/m 35,6 km/h (5 Bft)
11.12.2014 10:36 6,8 C 5,6 C 87 % 1007,8 hPa 0,0 l/m 0 min 0 min 28 W/m 48,1 km/h (6 Bft)
11.12.2014 10:38 6,8 C 5,6 C 87 % 1007,8 hPa 0,0 l/m 0 min 0 min 26 W/m 50,2 km/h (7 Bft)
11.12.2014 10:40 6,8 C 5,6 C 87 % 1007,7 hPa 0,0 l/m 0 min 0 min 25 W/m 31,4 km/h (5 Bft)
11.12.2014 10:42 6,8 C 5,6 C 87 % 1007,9 hPa 0,0 l/m 0 min 0 min 23 W/m 35,6 km/h (5 Bft)
11.12.2014 10:44 6,8 C 5,6 C 87 % 1007,9 hPa 0,0 l/m 0 min 0 min 25 W/m 48,1 km/h (6 Bft)
11.12.2014 10:46 6,8 C 5,6 C 87 % 1007,9 hPa 0,0 l/m 0 min 0 min 21 W/m 35,6 km/h (5 Bft)
11.12.2014 10:48 6,8 C 5,6 C 87 % 1008,0 hPa 0,0 l/m 0 min 0 min 25 W/m 41,8 km/h (6 Bft)
11.12.2014 10:50 6,8 C 5,6 C 87 % 1007,9 hPa 0,0 l/m 0 min 0 min 31 W/m 41,8 km/h (6 Bft)
11.12.2014 10:52 6,9 C 5,6 C 87 % 1007,8 hPa 0,0 l/m 0 min 0 min 47 W/m 41,8 km/h (6 Bft)
11.12.2014 10:54 6,9 C 5,6 C 87 % 1007,8 hPa 0,0 l/m 0 min 0 min 38 W/m 52,3 km/h (7 Bft)
11.12.2014 10:56 6,9 C 5,6 C 87 % 1007,9 hPa 0,0 l/m 0 min 0 min 31 W/m 41,8 km/h (6 Bft)
11.12.2014 10:58 6,9 C 5,6 C 87 % 1007,8 hPa 0,0 l/m 0 min 0 min 27 W/m 39,7 km/h (6 Bft)
11.12.2014 11:00 6,9 C 5,6 C 87 % 1007,8 hPa 0,0 l/m 0 min 0 min 33 W/m 41,8 km/h (6 Bft)
11.12.2014 11:02 7,0 C 5,6 C 87 % 1007,8 hPa 0,0 l/m 0 min 0 min 38 W/m 39,7 km/h (6 Bft)
11.12.2014 11:04 7,0 C 6,1 C 86 % 1007,7 hPa 0,0 l/m 0 min 0 min 35 W/m 46,0 km/h (6 Bft)
11.12.2014 11:06 7,1 C 6,1 C 86 % 1007,8 hPa 0,0 l/m 0 min 0 min 36 W/m 46,0 km/h (6 Bft)
11.12.2014 11:08 7,1 C 6,1 C 86 % 1007,7 hPa 0,0 l/m 0 min 0 min 45 W/m 39,7 km/h (6 Bft)
11.12.2014 11:10 7,1 C 6,1 C 86 % 1007,8 hPa 0,0 l/m 0 min 0 min 61 W/m 43,9 km/h (6 Bft)
11.12.2014 11:12 7,1 C 6,1 C 86 % 1007,7 hPa 0,0 l/m 0 min 0 min 71 W/m 37,7 km/h (5 Bft)
11.12.2014 11:14 7,1 C 6,1 C 86 % 1007,6 hPa 0,0 l/m 0 min 0 min 70 W/m 35,6 km/h (5 Bft)
11.12.2014 11:16 7,1 C 6,1 C 86 % 1007,5 hPa 0,0 l/m 0 min 0 min 70 W/m 54,4 km/h (7 Bft)
11.12.2014 11:18 7,2 C 6,1 C 86 % 1007,3 hPa 0,0 l/m 0 min 0 min 75 W/m 37,7 km/h (5 Bft)
11.12.2014 11:20 7,2 C 6,1 C 86 % 1007,2 hPa 0,0 l/m 0 min 0 min 79 W/m 43,9 km/h (6 Bft)
11.12.2014 11:22 7,2 C 6,1 C 85 % 1007,5 hPa 0,0 l/m 0 min 0 min 84 W/m 39,7 km/h (6 Bft)
11.12.2014 11:24 7,2 C 6,1 C 85 % 1007,3 hPa 0,0 l/m 0 min 0 min 96 W/m 52,3 km/h (7 Bft)
11.12.2014 11:26 7,2 C 6,1 C 86 % 1007,3 hPa 0,0 l/m 0 min 0 min 108 W/m 31,4 km/h (5 Bft)
11.12.2014 11:28 7,2 C 6,1 C 85 % 1007,4 hPa 0,0 l/m 0 min 0 min 110 W/m 41,8 km/h (6 Bft)
11.12.2014 11:30 7,3 C 6,1 C 85 % 1007,2 hPa 0,0 l/m 0 min 0 min 111 W/m 46,0 km/h (6 Bft)
11.12.2014 11:32 7,3 C 6,1 C 85 % 1007,3 hPa 0,0 l/m 0 min 0 min 105 W/m 54,4 km/h (7 Bft)
11.12.2014 11:34 7,3 C 6,7 C 85 % 1007,2 hPa 0,0 l/m 0 min 0 min 108 W/m 37,7 km/h (5 Bft)
11.12.2014 11:36 7,3 C 6,1 C 85 % 1007,3 hPa 0,0 l/m 0 min 0 min 89 W/m 52,3 km/h (7 Bft)
11.12.2014 11:38 7,4 C 6,1 C 85 % 1007,1 hPa 0,0 l/m 0 min 0 min 63 W/m 37,7 km/h (5 Bft)
11.12.2014 11:40 7,4 C 6,1 C 85 % 1007,1 hPa 0,0 l/m 0 min 0 min 58 W/m 35,6 km/h (5 Bft)
11.12.2014 11:42 7,4 C 6,1 C 85 % 1007,1 hPa 0,0 l/m 0 min 0 min 41 W/m 43,9 km/h (6 Bft)
11.12.2014 11:44 7,4 C 6,1 C 85 % 1007,1 hPa 0,0 l/m 0 min 0 min 38 W/m 43,9 km/h (6 Bft)
11.12.2014 11:46 7,4 C 5,6 C 85 % 1006,9 hPa 0,0 l/m 0 min 2 min 51 W/m 52,3 km/h (7 Bft)
11.12.2014 11:48 7,4 C 5,6 C 85 % 1006,8 hPa 0,0 l/m 0 min 0 min 78 W/m 37,7 km/h (5 Bft)
11.12.2014 11:50 7,4 C 5,6 C 85 % 1006,9 hPa 0,0 l/m 0 min 0 min 90 W/m 31,4 km/h (5 Bft)
11.12.2014 11:52 7,4 C 5,6 C 85 % 1006,9 hPa 0,0 l/m 0 min 0 min 97 W/m 43,9 km/h (6 Bft)
11.12.2014 11:54 7,4 C 5,6 C 85 % 1006,9 hPa 0,0 l/m 0 min 0 min 103 W/m 41,8 km/h (6 Bft)
11.12.2014 11:56 7,4 C 6,1 C 85 % 1006,7 hPa 0,0 l/m 0 min 0 min 106 W/m 48,1 km/h (6 Bft)
11.12.2014 11:58 7,4 C 6,1 C 85 % 1006,7 hPa 0,0 l/m 0 min 0 min 123 W/m 48,1 km/h (6 Bft)
11.12.2014 12:00 7,4 C 6,1 C 85 % 1006,7 hPa 0,0 l/m 2 min 0 min 146 W/m 50,2 km/h (7 Bft)
11.12.2014 12:02 7,4 C 6,1 C 85 % 1006,5 hPa 0,0 l/m 2 min 0 min 161 W/m 56,5 km/h (7 Bft)
11.12.2014 12:05 7,4 C 6,1 C 85 % 1006,3 hPa 0,0 l/m 0 min 0 min 116 W/m 37,7 km/h (5 Bft)
11.12.2014 12:08 7,4 C 6,1 C 85 % 1006,1 hPa 0,0 l/m 0 min 0 min 123 W/m 48,1 km/h (6 Bft)
11.12.2014 12:10 7,4 C 6,1 C 85 % 1006,0 hPa 0,0 l/m 0 min 0 min 83 W/m 31,4 km/h (5 Bft)
11.12.2014 12:12 7,4 C 6,1 C 85 % 1006,1 hPa 0,0 l/m 0 min 0 min 118 W/m 39,7 km/h (6 Bft)
11.12.2014 12:14 7,4 C 6,1 C 85 % 1006,2 hPa 0,0 l/m 0 min 0 min 119 W/m 46,0 km/h (6 Bft)
11.12.2014 12:16 7,4 C 6,1 C 85 % 1006,3 hPa 0,0 l/m 0 min 0 min 98 W/m 29,3 km/h (5 Bft)
11.12.2014 12:18 7,4 C 6,1 C 85 % 1006,5 hPa 0,0 l/m 2 min 0 min 157 W/m 43,9 km/h (6 Bft)
11.12.2014 12:20 7,4 C 6,7 C 85 % 1006,4 hPa 0,0 l/m 2 min 0 min 289 W/m 48,1 km/h (6 Bft)
11.12.2014 12:22 7,5 C 6,7 C 85 % 1006,4 hPa 0,0 l/m 0 min 0 min 133 W/m 39,7 km/h (6 Bft)
11.12.2014 12:24 7,5 C 6,1 C 85 % 1006,4 hPa 0,0 l/m 0 min 0 min 69 W/m 54,4 km/h (7 Bft)
11.12.2014 12:26 7,5 C 6,1 C 85 % 1006,4 hPa 0,0 l/m 0 min 0 min 78 W/m 29,3 km/h (5 Bft)
11.12.2014 12:28 7,5 C 6,1 C 85 % 1006,4 hPa 0,0 l/m 0 min 0 min 90 W/m 52,3 km/h (7 Bft)
11.12.2014 12:30 7,5 C 6,7 C 85 % 1006,4 hPa 0,0 l/m 0 min 0 min 110 W/m 46,0 km/h (6 Bft)
11.12.2014 12:32 7,5 C 6,7 C 85 % 1006,2 hPa 0,0 l/m 0 min 0 min 129 W/m 56,5 km/h (7 Bft)
11.12.2014 12:34 7,5 C 6,7 C 85 % 1006,2 hPa 0,0 l/m 2 min 0 min 153 W/m 43,9 km/h (6 Bft)
11.12.2014 12:36 7,5 C 6,7 C 85 % 1006,3 hPa 0,0 l/m 2 min 0 min 152 W/m 41,8 km/h (6 Bft)
11.12.2014 12:38 7,6 C 6,7 C 85 % 1006,2 hPa 0,0 l/m 0 min 0 min 116 W/m 54,4 km/h (7 Bft)
11.12.2014 12:40 7,6 C 6,7 C 85 % 1006,3 hPa 0,0 l/m 0 min 0 min 121 W/m 56,5 km/h (7 Bft)
11.12.2014 12:42 7,6 C 6,7 C 85 % 1006,3 hPa 0,0 l/m 0 min 0 min 112 W/m 43,9 km/h (6 Bft)
11.12.2014 12:44 7,6 C 6,7 C 85 % 1006,2 hPa 0,0 l/m 0 min 0 min 103 W/m 37,7 km/h (5 Bft)
11.12.2014 12:46 7,6 C 6,7 C 85 % 1006,3 hPa 0,0 l/m 0 min 0 min 116 W/m 43,9 km/h (6 Bft)
11.12.2014 12:48 7,6 C 6,7 C 85 % 1006,3 hPa 0,0 l/m 0 min 0 min 128 W/m 41,8 km/h (6 Bft)
11.12.2014 12:50 7,6 C 6,7 C 85 % 1006,2 hPa 0,0 l/m 2 min 0 min 139 W/m 43,9 km/h (6 Bft)
11.12.2014 12:52 7,7 C 6,7 C 85 % 1006,3 hPa 0,0 l/m 2 min 0 min 172 W/m 56,5 km/h (7 Bft)
11.12.2014 12:54 7,7 C 7,2 C 85 % 1006,1 hPa 0,0 l/m 2 min 0 min 226 W/m 54,4 km/h (7 Bft)
11.12.2014 12:56 7,7 C 7,2 C 85 % 1006,1 hPa 0,0 l/m 2 min 0 min 208 W/m 43,9 km/h (6 Bft)
11.12.2014 12:58 7,8 C 7,2 C 85 % 1006,1 hPa 0,0 l/m 2 min 0 min 170 W/m 43,9 km/h (6 Bft)
11.12.2014 13:00 7,8 C 7,2 C 85 % 1006,1 hPa 0,0 l/m 2 min 0 min 179 W/m 41,8 km/h (6 Bft)
11.12.2014 13:02 7,8 C 7,2 C 85 % 1006,0 hPa 0,0 l/m 2 min 0 min 150 W/m 35,6 km/h (5 Bft)
11.12.2014 13:04 7,9 C 7,2 C 84 % 1006,0 hPa 0,0 l/m 2 min 0 min 155 W/m 52,3 km/h (7 Bft)
11.12.2014 13:06 7,9 C 7,2 C 84 % 1006,0 hPa 0,0 l/m 2 min 0 min 186 W/m 46,0 km/h (6 Bft)
11.12.2014 13:08 7,9 C 7,2 C 84 % 1005,9 hPa 0,0 l/m 2 min 0 min 190 W/m 35,6 km/h (5 Bft)
11.12.2014 13:10 7,9 C 7,2 C 84 % 1005,9 hPa 0,0 l/m 2 min 0 min 137 W/m 29,3 km/h (5 Bft)
11.12.2014 13:12 7,9 C 7,2 C 83 % 1005,9 hPa 0,0 l/m 0 min 0 min 81 W/m 52,3 km/h (7 Bft)
11.12.2014 13:14 7,9 C 6,7 C 83 % 1005,8 hPa 0,0 l/m 0 min 0 min 76 W/m 48,1 km/h (6 Bft)
11.12.2014 13:16 7,9 C 6,7 C 83 % 1005,7 hPa 0,0 l/m 0 min 0 min 82 W/m 48,1 km/h (6 Bft)
11.12.2014 13:18 7,9 C 6,7 C 83 % 1005,7 hPa 0,0 l/m 0 min 0 min 72 W/m 54,4 km/h (7 Bft)
11.12.2014 13:20 7,9 C 6,7 C 83 % 1005,6 hPa 0,0 l/m 0 min 0 min 110 W/m 46,0 km/h (6 Bft)
11.12.2014 13:22 7,9 C 7,2 C 83 % 1005,9 hPa 0,0 l/m 2 min 0 min 169 W/m 46,0 km/h (6 Bft)
11.12.2014 13:24 7,9 C 7,2 C 83 % 1005,8 hPa 0,0 l/m 2 min 0 min 200 W/m 46,0 km/h (6 Bft)
11.12.2014 13:26 8,0 C 7,2 C 83 % 1005,8 hPa 0,0 l/m 2 min 0 min 169 W/m 46,0 km/h (6 Bft)
11.12.2014 13:28 8,0 C 7,2 C 83 % 1006,0 hPa 0,0 l/m 2 min 0 min 130 W/m 52,3 km/h (7 Bft)
11.12.2014 13:30 8,0 C 6,7 C 83 % 1006,0 hPa 0,0 l/m 0 min 0 min 101 W/m 66,9 km/h (8 Bft)
11.12.2014 13:32 8,0 C 6,7 C 82 % 1006,0 hPa 0,0 l/m 0 min 0 min 89 W/m 58,6 km/h (7 Bft)
11.12.2014 13:34 8,0 C 6,7 C 82 % 1006,1 hPa 0,0 l/m 0 min 0 min 87 W/m 60,7 km/h (7 Bft)
11.12.2014 13:36 7,9 C 6,7 C 82 % 1006,3 hPa 0,0 l/m 0 min 0 min 112 W/m 56,5 km/h (7 Bft)
11.12.2014 13:38 7,9 C 6,7 C 82 % 1006,1 hPa 0,0 l/m 0 min 0 min 113 W/m 50,2 km/h (7 Bft)
11.12.2014 13:40 7,9 C 6,7 C 82 % 1006,2 hPa 0,0 l/m 0 min 0 min 105 W/m 54,4 km/h (7 Bft)
11.12.2014 13:42 7,9 C 6,7 C 82 % 1006,2 hPa 0,0 l/m 0 min 0 min 112 W/m 52,3 km/h (7 Bft)
11.12.2014 13:44 7,9 C 6,7 C 82 % 1006,2 hPa 0,0 l/m 0 min 0 min 112 W/m 60,7 km/h (7 Bft)
11.12.2014 13:46 7,9 C 6,7 C 82 % 1006,1 hPa 0,0 l/m 0 min 0 min 83 W/m 43,9 km/h (6 Bft)
11.12.2014 13:48 7,9 C 6,7 C 82 % 1006,2 hPa 0,0 l/m 0 min 2 min 55 W/m 52,3 km/h (7 Bft)
11.12.2014 13:50 7,9 C 6,1 C 83 % 1006,3 hPa 0,0 l/m 0 min 2 min 50 W/m 52,3 km/h (7 Bft)
11.12.2014 13:52 7,9 C 5,6 C 83 % 1006,3 hPa 0,0 l/m 0 min 2 min 37 W/m 56,5 km/h (7 Bft)
11.12.2014 13:54 7,8 C 5,6 C 84 % 1006,5 hPa 0,0 l/m 0 min 2 min 14 W/m 48,1 km/h (6 Bft)
11.12.2014 13:56 7,6 C 4,4 C 83 % 1006,9 hPa 0,0 l/m 0 min 2 min 7 W/m 46,0 km/h (6 Bft)
11.12.2014 13:58 7,4 C 3,9 C 83 % 1006,8 hPa 0,2 l/m 0 min 2 min 5 W/m 37,7 km/h (5 Bft)
11.12.2014 14:00 7,2 C 3,3 C 83 % 1006,9 hPa 0,0 l/m 0 min 2 min 5 W/m 25,1 km/h (4 Bft)
11.12.2014 14:02 6,9 C 3,3 C 83 % 1006,7 hPa 0,2 l/m 0 min 2 min 5 W/m 31,4 km/h (5 Bft)
11.12.2014 14:04 6,7 C 3,3 C 83 % 1006,8 hPa 0,2 l/m 0 min 2 min 2 W/m 31,4 km/h (5 Bft)
11.12.2014 14:06 6,4 C 2,8 C 84 % 1007,2 hPa 0,8 l/m 0 min 2 min 0 W/m 64,9 km/h (8 Bft)
11.12.2014 14:08 5,9 C 2,2 C 84 % 1007,5 hPa 0,6 l/m 0 min 2 min 0 W/m 54,4 km/h (7 Bft)
11.12.2014 14:10 5,5 C 1,7 C 84 % 1007,9 hPa 0,8 l/m 0 min 2 min 0 W/m 46,0 km/h (6 Bft)
11.12.2014 14:12 5,1 C 1,1 C 85 % 1007,9 hPa 0,4 l/m 0 min 0 min 0 W/m 39,7 km/h (6 Bft)
11.12.2014 14:14 4,7 C 1,1 C 86 % 1007,7 hPa 0,2 l/m 0 min 0 min 0 W/m 46,0 km/h (6 Bft)
11.12.2014 14:16 4,4 C 1,1 C 86 % 1007,5 hPa 0,2 l/m 0 min 2 min 0 W/m 37,7 km/h (5 Bft)
11.12.2014 14:18 4,2 C 1,7 C 87 % 1007,4 hPa 0,4 l/m 0 min 2 min 0 W/m 37,7 km/h (5 Bft)
11.12.2014 14:20 4,0 C 1,7 C 88 % 1007,3 hPa 0,0 l/m 0 min 2 min 0 W/m 48,1 km/h (6 Bft)
11.12.2014 14:22 3,9 C 1,7 C 88 % 1007,2 hPa 0,0 l/m 0 min 2 min 0 W/m 41,8 km/h (6 Bft)
11.12.2014 14:24 3,8 C 1,7 C 89 % 1007,2 hPa 0,0 l/m 0 min 2 min 0 W/m 41,8 km/h (6 Bft)
11.12.2014 14:26 3,7 C 1,7 C 89 % 1007,6 hPa 0,2 l/m 0 min 2 min 0 W/m 41,8 km/h (6 Bft)
11.12.2014 14:28 3,7 C 2,2 C 90 % 1007,2 hPa 0,0 l/m 0 min 2 min 1 W/m 52,3 km/h (7 Bft)
11.12.2014 14:30 3,7 C 2,2 C 90 % 1007,0 hPa 0,2 l/m 0 min 2 min 5 W/m 39,7 km/h (6 Bft)
11.12.2014 14:32 3,8 C 2,2 C 91 % 1007,1 hPa 0,0 l/m 0 min 2 min 7 W/m 35,6 km/h (5 Bft)
11.12.2014 14:34 3,8 C 2,2 C 91 % 1007,0 hPa 0,0 l/m 0 min 2 min 12 W/m 33,5 km/h (5 Bft)
11.12.2014 14:36 3,8 C 2,2 C 91 % 1007,0 hPa 0,0 l/m 0 min 2 min 24 W/m 33,5 km/h (5 Bft)
11.12.2014 14:38 3,8 C 2,2 C 91 % 1007,2 hPa 0,0 l/m 0 min 2 min 48 W/m 27,2 km/h (4 Bft)
11.12.2014 14:40 3,8 C 2,2 C 92 % 1007,3 hPa 0,0 l/m 0 min 2 min 54 W/m 23,0 km/h (4 Bft)
11.12.2014 14:42 3,8 C 2,2 C 92 % 1007,3 hPa 0,0 l/m 0 min 2 min 37 W/m 29,3 km/h (5 Bft)
11.12.2014 14:44 3,8 C 2,2 C 92 % 1007,3 hPa 0,0 l/m 0 min 2 min 27 W/m 25,1 km/h (4 Bft)
11.12.2014 14:46 3,8 C 2,2 C 92 % 1007,2 hPa 0,0 l/m 0 min 2 min 28 W/m 31,4 km/h (5 Bft)
11.12.2014 14:48 3,7 C 2,2 C 92 % 1007,1 hPa 0,0 l/m 0 min 2 min 30 W/m 29,3 km/h (5 Bft)
11.12.2014 14:50 3,7 C 2,2 C 92 % 1007,1 hPa 0,0 l/m 0 min 2 min 30 W/m 27,2 km/h (4 Bft)
11.12.2014 14:52 3,7 C 2,2 C 92 % 1007,0 hPa 0,0 l/m 0 min 2 min 30 W/m 25,1 km/h (4 Bft)
11.12.2014 14:54 3,7 C 2,2 C 93 % 1007,0 hPa 0,0 l/m 0 min 2 min 32 W/m 18,8 km/h (3 Bft)
11.12.2014 14:56 3,7 C 2,2 C 92 % 1007,0 hPa 0,0 l/m 0 min 2 min 33 W/m 25,1 km/h (4 Bft)
11.12.2014 14:58 3,7 C 2,2 C 93 % 1006,9 hPa 0,0 l/m 0 min 2 min 33 W/m 27,2 km/h (4 Bft)
11.12.2014 15:00 3,7 C 2,2 C 93 % 1006,8 hPa 0,0 l/m 0 min 2 min 33 W/m 29,3 km/h (5 Bft)
11.12.2014 15:02 3,7 C 2,2 C 93 % 1006,8 hPa 0,0 l/m 0 min 2 min 33 W/m 23,0 km/h (4 Bft)
11.12.2014 15:04 3,7 C 2,2 C 93 % 1006,9 hPa 0,0 l/m 0 min 2 min 32 W/m 31,4 km/h (5 Bft)
11.12.2014 15:06 3,8 C 2,8 C 93 % 1006,9 hPa 0,0 l/m 0 min 2 min 33 W/m 27,2 km/h (4 Bft)
11.12.2014 15:08 3,8 C 2,8 C 93 % 1007,0 hPa 0,0 l/m 0 min 2 min 31 W/m 25,1 km/h (4 Bft)
11.12.2014 15:10 3,8 C 2,8 C 93 % 1006,9 hPa 0,0 l/m 0 min 2 min 29 W/m 25,1 km/h (4 Bft)
11.12.2014 15:12 3,9 C 2,8 C 93 % 1007,2 hPa 0,2 l/m 0 min 2 min 27 W/m 25,1 km/h (4 Bft)
11.12.2014 15:14 3,9 C 2,8 C 94 % 1007,2 hPa 0,0 l/m 0 min 2 min 24 W/m 23,0 km/h (4 Bft)
11.12.2014 15:16 3,9 C 2,8 C 93 % 1007,2 hPa 0,0 l/m 0 min 2 min 20 W/m 31,4 km/h (5 Bft)
11.12.2014 15:18 4,0 C 2,8 C 94 % 1007,3 hPa 0,0 l/m 0 min 2 min 17 W/m 33,5 km/h (5 Bft)
11.12.2014 15:20 4,1 C 2,8 C 94 % 1007,3 hPa 0,0 l/m 0 min 2 min 12 W/m 29,3 km/h (5 Bft)
11.12.2014 15:22 4,1 C 2,8 C 94 % 1007,5 hPa 0,0 l/m 0 min 2 min 9 W/m 33,5 km/h (5 Bft)
11.12.2014 15:24 4,1 C 2,8 C 94 % 1007,5 hPa 0,0 l/m 0 min 2 min 7 W/m 27,2 km/h (4 Bft)
11.12.2014 15:26 4,2 C 3,3 C 94 % 1007,6 hPa 0,0 l/m 0 min 2 min 7 W/m 29,3 km/h (5 Bft)
11.12.2014 15:28 4,2 C 3,3 C 94 % 1007,6 hPa 0,0 l/m 0 min 0 min 7 W/m 31,4 km/h (5 Bft)
11.12.2014 15:30 4,2 C 3,3 C 94 % 1007,5 hPa 0,0 l/m 0 min 0 min 7 W/m 43,9 km/h (6 Bft)
11.12.2014 15:32 4,3 C 3,3 C 94 % 1007,6 hPa 0,0 l/m 0 min 0 min 5 W/m 27,2 km/h (4 Bft)
11.12.2014 15:34 4,3 C 3,3 C 94 % 1007,6 hPa 0,0 l/m 0 min 0 min 6 W/m 33,5 km/h (5 Bft)
11.12.2014 15:36 4,4 C 3,3 C 94 % 1007,5 hPa 0,0 l/m 0 min 2 min 11 W/m 39,7 km/h (6 Bft)
11.12.2014 15:38 4,4 C 3,3 C 94 % 1007,3 hPa 0,0 l/m 0 min 0 min 17 W/m 35,6 km/h (5 Bft)
11.12.2014 15:40 4,5 C 3,3 C 94 % 1007,3 hPa 0,0 l/m 0 min 0 min 19 W/m 31,4 km/h (5 Bft)
11.12.2014 15:42 4,6 C 3,3 C 94 % 1007,2 hPa 0,0 l/m 0 min 0 min 15 W/m 35,6 km/h (5 Bft)
11.12.2014 15:44 4,6 C 3,3 C 94 % 1007,3 hPa 0,0 l/m 0 min 0 min 11 W/m 43,9 km/h (6 Bft)
11.12.2014 15:46 4,7 C 3,3 C 94 % 1007,3 hPa 0,0 l/m 0 min 0 min 10 W/m 41,8 km/h (6 Bft)
11.12.2014 15:48 4,7 C 3,3 C 94 % 1007,3 hPa 0,0 l/m 0 min 0 min 9 W/m 41,8 km/h (6 Bft)
11.12.2014 15:50 4,8 C 3,3 C 94 % 1007,3 hPa 0,0 l/m 0 min 0 min 9 W/m 41,8 km/h (6 Bft)
11.12.2014 15:52 4,8 C 3,3 C 94 % 1007,4 hPa 0,0 l/m 0 min 0 min 10 W/m 39,7 km/h (6 Bft)
11.12.2014 15:54 4,8 C 3,3 C 93 % 1007,5 hPa 0,0 l/m 0 min 0 min 11 W/m 37,7 km/h (5 Bft)
11.12.2014 15:56 4,9 C 3,3 C 93 % 1007,3 hPa 0,0 l/m 0 min 0 min 8 W/m 33,5 km/h (5 Bft)
11.12.2014 15:58 4,9 C 3,3 C 93 % 1007,6 hPa 0,0 l/m 0 min 0 min 6 W/m 35,6 km/h (5 Bft)
11.12.2014 16:00 4,9 C 3,3 C 93 % 1007,6 hPa 0,0 l/m 0 min 0 min 5 W/m 35,6 km/h (5 Bft)
11.12.2014 16:02 4,9 C 3,3 C 92 % 1007,6 hPa 0,0 l/m 0 min 0 min 5 W/m 31,4 km/h (5 Bft)
11.12.2014 16:04 4,9 C 3,3 C 92 % 1007,6 hPa 0,0 l/m 0 min 0 min 6 W/m 33,5 km/h (5 Bft)
11.12.2014 16:06 4,9 C 3,3 C 91 % 1007,5 hPa 0,0 l/m 0 min 0 min 10 W/m 43,9 km/h (6 Bft)
11.12.2014 16:08 4,9 C 3,3 C 91 % 1007,6 hPa 0,0 l/m 0 min 0 min 12 W/m 39,7 km/h (6 Bft)
11.12.2014 16:10 4,9 C 3,3 C 90 % 1007,6 hPa 0,0 l/m 0 min 0 min 11 W/m 39,7 km/h (6 Bft)
11.12.2014 16:12 4,9 C 3,3 C 90 % 1007,7 hPa 0,0 l/m 0 min 0 min 10 W/m 29,3 km/h (5 Bft)
11.12.2014 16:14 4,9 C 3,3 C 89 % 1007,6 hPa 0,0 l/m 0 min 0 min 9 W/m 48,1 km/h (6 Bft)
11.12.2014 16:16 4,9 C 3,3 C 89 % 1007,7 hPa 0,0 l/m 0 min 0 min 7 W/m 35,6 km/h (5 Bft)
11.12.2014 16:18 4,9 C 3,3 C 88 % 1007,8 hPa 0,0 l/m 0 min 0 min 7 W/m 27,2 km/h (4 Bft)
11.12.2014 16:20 4,9 C 2,8 C 88 % 1007,9 hPa 0,0 l/m 0 min 0 min 6 W/m 31,4 km/h (5 Bft)
11.12.2014 16:22 4,9 C 2,8 C 88 % 1008,0 hPa 0,0 l/m 0 min 0 min 5 W/m 23,0 km/h (4 Bft)
11.12.2014 16:24 4,9 C 2,8 C 87 % 1007,9 hPa 0,0 l/m 0 min 0 min 5 W/m 25,1 km/h (4 Bft)
11.12.2014 16:26 4,8 C 2,8 C 87 % 1008,0 hPa 0,0 l/m 0 min 0 min 5 W/m 33,5 km/h (5 Bft)
11.12.2014 16:28 4,8 C 2,8 C 87 % 1008,0 hPa 0,0 l/m 0 min 0 min 3 W/m 33,5 km/h (5 Bft)
11.12.2014 16:30 4,8 C 2,8 C 87 % 1008,0 hPa 0,0 l/m 0 min 0 min 0 W/m 27,2 km/h (4 Bft)
11.12.2014 16:32 4,8 C 2,8 C 87 % 1008,0 hPa 0,0 l/m 0 min 0 min 0 W/m 31,4 km/h (5 Bft)
11.12.2014 16:34 4,7 C 2,8 C 87 % 1008,0 hPa 0,0 l/m 0 min 0 min 0 W/m 33,5 km/h (5 Bft)
11.12.2014 16:36 4,7 C 2,8 C 87 % 1008,0 hPa 0,0 l/m 0 min 0 min 0 W/m 25,1 km/h (4 Bft)
11.12.2014 16:38 4,7 C 2,8 C 87 % 1008,0 hPa 0,0 l/m 0 min 0 min 0 W/m 29,3 km/h (5 Bft)
11.12.2014 16:40 4,6 C 2,8 C 86 % 1008,0 hPa 0,0 l/m 0 min 0 min 0 W/m 41,8 km/h (6 Bft)
11.12.2014 16:42 4,6 C 2,8 C 86 % 1008,0 hPa 0,0 l/m 0 min 0 min 0 W/m 23,0 km/h (4 Bft)
11.12.2014 16:44 4,6 C 2,8 C 86 % 1008,1 hPa 0,0 l/m 0 min 0 min 0 W/m 37,7 km/h (5 Bft)
11.12.2014 16:46 4,6 C 2,2 C 86 % 1008,1 hPa 0,0 l/m 0 min 0 min 0 W/m 25,1 km/h (4 Bft)
11.12.2014 16:48 4,6 C 2,2 C 86 % 1008,1 hPa 0,0 l/m 0 min 0 min 0 W/m 25,1 km/h (4 Bft)
11.12.2014 16:50 4,6 C 2,8 C 86 % 1008,1 hPa 0,0 l/m 0 min 0 min 0 W/m 31,4 km/h (5 Bft)
11.12.2014 16:52 4,6 C 2,8 C 86 % 1008,1 hPa 0,0 l/m 0 min 0 min 0 W/m 29,3 km/h (5 Bft)
11.12.2014 16:54 4,5 C 2,8 C 86 % 1008,1 hPa 0,0 l/m 0 min 0 min 0 W/m 27,2 km/h (4 Bft)
11.12.2014 16:56 4,5 C 2,8 C 86 % 1008,1 hPa 0,0 l/m 0 min 0 min 0 W/m 31,4 km/h (5 Bft)
11.12.2014 16:58 4,5 C 2,8 C 86 % 1008,2 hPa 0,0 l/m 0 min 0 min 0 W/m 33,5 km/h (5 Bft)
11.12.2014 17:00 4,5 C 2,8 C 86 % 1008,2 hPa 0,0 l/m 0 min 0 min 0 W/m 31,4 km/h (5 Bft)
11.12.2014 17:02 4,5 C 2,8 C 87 % 1008,2 hPa 0,0 l/m 0 min 0 min 0 W/m 27,2 km/h (4 Bft)
11.12.2014 17:04 4,5 C 2,8 C 87 % 1008,2 hPa 0,0 l/m 0 min 0 min 0 W/m 33,5 km/h (5 Bft)
11.12.2014 17:06 4,5 C 2,8 C 87 % 1008,3 hPa 0,0 l/m 0 min 0 min 0 W/m 31,4 km/h (5 Bft)
11.12.2014 17:08 4,5 C 2,8 C 87 % 1008,3 hPa 0,0 l/m 0 min 0 min 0 W/m 33,5 km/h (5 Bft)
11.12.2014 17:10 4,5 C 2,8 C 87 % 1008,4 hPa 0,0 l/m 0 min 0 min 0 W/m 37,7 km/h (5 Bft)
11.12.2014 17:12 4,6 C 2,8 C 87 % 1008,4 hPa 0,0 l/m 0 min 0 min 0 W/m 39,7 km/h (6 Bft)
11.12.2014 17:14 4,6 C 2,8 C 87 % 1008,4 hPa 0,0 l/m 0 min 0 min 0 W/m 25,1 km/h (4 Bft)
11.12.2014 17:16 4,6 C 2,8 C 87 % 1008,4 hPa 0,0 l/m 0 min 0 min 0 W/m 27,2 km/h (4 Bft)
11.12.2014 17:18 4,6 C 2,8 C 87 % 1008,4 hPa 0,0 l/m 0 min 0 min 0 W/m 33,5 km/h (5 Bft)
11.12.2014 17:20 4,6 C 2,8 C 88 % 1008,4 hPa 0,0 l/m 0 min 0 min 0 W/m 33,5 km/h (5 Bft)
11.12.2014 17:22 4,6 C 2,8 C 88 % 1008,4 hPa 0,0 l/m 0 min 0 min 0 W/m 31,4 km/h (5 Bft)
11.12.2014 17:24 4,6 C 2,8 C 88 % 1008,4 hPa 0,0 l/m 0 min 0 min 0 W/m 33,5 km/h (5 Bft)
11.12.2014 17:26 4,6 C 2,8 C 88 % 1008,5 hPa 0,0 l/m 0 min 0 min 0 W/m 35,6 km/h (5 Bft)
11.12.2014 17:28 4,6 C 2,8 C 88 % 1008,5 hPa 0,0 l/m 0 min 0 min 0 W/m 29,3 km/h (5 Bft)
11.12.2014 17:30 4,6 C 2,8 C 88 % 1008,4 hPa 0,0 l/m 0 min 0 min 0 W/m 29,3 km/h (5 Bft)
11.12.2014 17:32 4,6 C 2,8 C 88 % 1008,4 hPa 0,0 l/m 0 min 0 min 0 W/m 33,5 km/h (5 Bft)
11.12.2014 17:34 4,6 C 2,8 C 88 % 1008,4 hPa 0,0 l/m 0 min 0 min 0 W/m 29,3 km/h (5 Bft)
11.12.2014 17:36 4,6 C 2,8 C 88 % 1008,5 hPa 0,0 l/m 0 min 0 min 0 W/m 33,5 km/h (5 Bft)
11.12.2014 17:38 4,6 C 2,8 C 88 % 1008,5 hPa 0,0 l/m 0 min 0 min 0 W/m 33,5 km/h (5 Bft)
11.12.2014 17:40 4,6 C 2,8 C 88 % 1008,5 hPa 0,0 l/m 0 min 0 min 0 W/m 27,2 km/h (4 Bft)
11.12.2014 17:42 4,6 C 2,8 C 88 % 1008,5 hPa 0,0 l/m 0 min 0 min 0 W/m 37,7 km/h (5 Bft)
11.12.2014 17:44 4,6 C 2,8 C 88 % 1008,5 hPa 0,0 l/m 0 min 0 min 0 W/m 35,6 km/h (5 Bft)
11.12.2014 17:46 4,6 C 2,8 C 88 % 1008,5 hPa 0,0 l/m 0 min 0 min 0 W/m 39,7 km/h (6 Bft)
11.12.2014 17:48 4,6 C 2,8 C 88 % 1008,5 hPa 0,0 l/m 0 min 0 min 0 W/m 33,5 km/h (5 Bft)
11.12.2014 17:50 4,6 C 2,8 C 88 % 1008,5 hPa 0,0 l/m 0 min 0 min 0 W/m 27,2 km/h (4 Bft)
11.12.2014 17:52 4,5 C 2,8 C 88 % 1008,5 hPa 0,0 l/m 0 min 0 min 0 W/m 31,4 km/h (5 Bft)
11.12.2014 17:54 4,5 C 2,8 C 89 % 1008,5 hPa 0,0 l/m 0 min 0 min 0 W/m 33,5 km/h (5 Bft)
11.12.2014 17:56 4,5 C 2,8 C 89 % 1008,6 hPa 0,0 l/m 0 min 0 min 0 W/m 31,4 km/h (5 Bft)
11.12.2014 17:58 4,5 C 2,8 C 89 % 1008,5 hPa 0,0 l/m 0 min 0 min 0 W/m 33,5 km/h (5 Bft)
11.12.2014 18:00 4,5 C 2,8 C 89 % 1008,6 hPa 0,0 l/m 0 min 0 min 0 W/m 35,6 km/h (5 Bft)
11.12.2014 18:02 4,4 C 2,8 C 89 % 1008,5 hPa 0,0 l/m 0 min 0 min 0 W/m 23,0 km/h (4 Bft)
11.12.2014 18:05 4,4 C 2,8 C 89 % 1008,5 hPa 0,0 l/m 0 min 0 min 0 W/m 25,1 km/h (4 Bft)
11.12.2014 18:08 4,4 C 2,8 C 89 % 1008,5 hPa 0,0 l/m 0 min 0 min 0 W/m 29,3 km/h (5 Bft)
11.12.2014 18:10 4,4 C 2,8 C 89 % 1008,5 hPa 0,0 l/m 0 min 0 min 0 W/m 33,5 km/h (5 Bft)
11.12.2014 18:12 4,4 C 2,8 C 89 % 1008,5 hPa 0,0 l/m 0 min 0 min 0 W/m 29,3 km/h (5 Bft)
11.12.2014 18:14 4,4 C 2,8 C 89 % 1008,4 hPa 0,0 l/m 0 min 0 min 0 W/m 25,1 km/h (4 Bft)
11.12.2014 18:16 4,4 C 2,8 C 90 % 1008,5 hPa 0,0 l/m 0 min 0 min 0 W/m 25,1 km/h (4 Bft)
11.12.2014 18:18 4,4 C 2,8 C 90 % 1008,5 hPa 0,0 l/m 0 min 0 min 0 W/m 25,1 km/h (4 Bft)
11.12.2014 18:20 4,4 C 2,8 C 90 % 1008,6 hPa 0,0 l/m 0 min 0 min 0 W/m 31,4 km/h (5 Bft)
11.12.2014 18:22 4,4 C 2,8 C 90 % 1008,5 hPa 0,0 l/m 0 min 0 min 0 W/m 18,8 km/h (3 Bft)
11.12.2014 18:24 4,4 C 2,8 C 90 % 1008,5 hPa 0,0 l/m 0 min 0 min 0 W/m 23,0 km/h (4 Bft)
11.12.2014 18:26 4,4 C 2,8 C 90 % 1008,5 hPa 0,0 l/m 0 min 0 min 0 W/m 27,2 km/h (4 Bft)
11.12.2014 18:28 4,4 C 2,8 C 90 % 1008,5 hPa 0,0 l/m 0 min 0 min 0 W/m 25,1 km/h (4 Bft)
11.12.2014 18:30 4,4 C 2,8 C 90 % 1008,7 hPa 0,0 l/m 0 min 0 min 0 W/m 20,9 km/h (4 Bft)
11.12.2014 18:32 4,4 C 2,8 C 90 % 1008,7 hPa 0,0 l/m 0 min 0 min 0 W/m 25,1 km/h (4 Bft)
11.12.2014 18:34 4,4 C 2,8 C 90 % 1008,7 hPa 0,0 l/m 0 min 0 min 0 W/m 20,9 km/h (4 Bft)
11.12.2014 18:36 4,3 C 2,8 C 90 % 1008,7 hPa 0,0 l/m 0 min 0 min 0 W/m 31,4 km/h (5 Bft)
11.12.2014 18:38 4,3 C 2,8 C 90 % 1008,7 hPa 0,0 l/m 0 min 0 min 0 W/m 23,0 km/h (4 Bft)
11.12.2014 18:40 4,3 C 2,8 C 90 % 1008,6 hPa 0,0 l/m 0 min 0 min 0 W/m 25,1 km/h (4 Bft)
11.12.2014 18:42 4,3 C 2,8 C 90 % 1008,7 hPa 0,0 l/m 0 min 0 min 0 W/m 25,1 km/h (4 Bft)
11.12.2014 18:44 4,3 C 2,8 C 91 % 1008,6 hPa 0,0 l/m 0 min 0 min 0 W/m 27,2 km/h (4 Bft)
11.12.2014 18:46 4,3 C 2,8 C 91 % 1008,6 hPa 0,0 l/m 0 min 0 min 0 W/m 23,0 km/h (4 Bft)
11.12.2014 18:48 4,3 C 2,8 C 91 % 1008,6 hPa 0,0 l/m 0 min 0 min 0 W/m 25,1 km/h (4 Bft)
11.12.2014 18:50 4,3 C 2,8 C 91 % 1008,7 hPa 0,0 l/m 0 min 0 min 0 W/m 25,1 km/h (4 Bft)
11.12.2014 18:52 4,3 C 2,8 C 91 % 1008,6 hPa 0,0 l/m 0 min 0 min 0 W/m 20,9 km/h (4 Bft)
11.12.2014 18:54 4,3 C 2,8 C 91 % 1008,6 hPa 0,0 l/m 0 min 0 min 0 W/m 23,0 km/h (4 Bft)
11.12.2014 18:56 4,3 C 2,8 C 91 % 1008,5 hPa 0,0 l/m 0 min 0 min 0 W/m 20,9 km/h (4 Bft)
11.12.2014 18:58 4,3 C 2,8 C 91 % 1008,5 hPa 0,0 l/m 0 min 0 min 0 W/m 29,3 km/h (5 Bft)
11.12.2014 19:00 4,3 C 2,8 C 91 % 1008,5 hPa 0,0 l/m 0 min 0 min 0 W/m 23,0 km/h (4 Bft)
11.12.2014 19:02 4,3 C 2,8 C 91 % 1008,6 hPa 0,0 l/m 0 min 0 min 0 W/m 25,1 km/h (4 Bft)
11.12.2014 19:04 4,3 C 2,8 C 91 % 1008,5 hPa 0,0 l/m 0 min 0 min 0 W/m 20,9 km/h (4 Bft)
11.12.2014 19:06 4,3 C 2,8 C 91 % 1008,5 hPa 0,0 l/m 0 min 0 min 0 W/m 18,8 km/h (3 Bft)
11.12.2014 19:08 4,3 C 2,8 C 91 % 1008,6 hPa 0,0 l/m 0 min 0 min 0 W/m 20,9 km/h (4 Bft)
11.12.2014 19:10 4,3 C 2,8 C 91 % 1008,6 hPa 0,0 l/m 0 min 0 min 0 W/m 25,1 km/h (4 Bft)
11.12.2014 19:12 4,3 C 2,8 C 91 % 1008,6 hPa 0,0 l/m 0 min 0 min 0 W/m 23,0 km/h (4 Bft)
11.12.2014 19:14 4,4 C 2,8 C 91 % 1008,5 hPa 0,0 l/m 0 min 0 min 0 W/m 31,4 km/h (5 Bft)
11.12.2014 19:16 4,4 C 2,8 C 91 % 1008,6 hPa 0,0 l/m 0 min 0 min 0 W/m 20,9 km/h (4 Bft)
11.12.2014 19:18 4,4 C 2,8 C 92 % 1008,6 hPa 0,0 l/m 0 min 0 min 0 W/m 27,2 km/h (4 Bft)
11.12.2014 19:20 4,4 C 2,8 C 92 % 1008,7 hPa 0,0 l/m 0 min 0 min 0 W/m 27,2 km/h (4 Bft)
11.12.2014 19:22 4,4 C 2,8 C 92 % 1008,7 hPa 0,0 l/m 0 min 0 min 0 W/m 25,1 km/h (4 Bft)
11.12.2014 19:24 4,4 C 2,8 C 92 % 1008,7 hPa 0,0 l/m 0 min 0 min 0 W/m 25,1 km/h (4 Bft)
11.12.2014 19:26 4,4 C 2,8 C 92 % 1008,8 hPa 0,0 l/m 0 min 0 min 0 W/m 23,0 km/h (4 Bft)
11.12.2014 19:28 4,4 C 2,8 C 92 % 1008,7 hPa 0,0 l/m 0 min 0 min 0 W/m 29,3 km/h (5 Bft)
11.12.2014 19:30 4,4 C 2,8 C 92 % 1008,7 hPa 0,0 l/m 0 min 0 min 0 W/m 25,1 km/h (4 Bft)
11.12.2014 19:32 4,4 C 2,8 C 92 % 1008,8 hPa 0,0 l/m 0 min 0 min 0 W/m 33,5 km/h (5 Bft)
11.12.2014 19:34 4,5 C 3,3 C 92 % 1008,7 hPa 0,0 l/m 0 min 0 min 0 W/m 33,5 km/h (5 Bft)
11.12.2014 19:36 4,5 C 3,3 C 92 % 1008,7 hPa 0,0 l/m 0 min 0 min 0 W/m 27,2 km/h (4 Bft)
11.12.2014 19:38 4,6 C 3,3 C 92 % 1008,8 hPa 0,0 l/m 0 min 0 min 0 W/m 33,5 km/h (5 Bft)
11.12.2014 19:40 4,6 C 3,3 C 92 % 1008,7 hPa 0,0 l/m 0 min 0 min 0 W/m 29,3 km/h (5 Bft)
11.12.2014 19:42 4,6 C 3,3 C 92 % 1008,7 hPa 0,0 l/m 0 min 0 min 0 W/m 33,5 km/h (5 Bft)
11.12.2014 19:44 4,6 C 3,3 C 92 % 1008,7 hPa 0,0 l/m 0 min 0 min 0 W/m 31,4 km/h (5 Bft)
11.12.2014 19:46 4,7 C 3,3 C 92 % 1008,8 hPa 0,0 l/m 0 min 0 min 0 W/m 29,3 km/h (5 Bft)
11.12.2014 19:48 4,7 C 3,3 C 92 % 1008,8 hPa 0,0 l/m 0 min 0 min 0 W/m 29,3 km/h (5 Bft)
11.12.2014 19:50 4,7 C 3,3 C 92 % 1008,8 hPa 0,0 l/m 0 min 0 min 0 W/m 29,3 km/h (5 Bft)
11.12.2014 19:52 4,8 C 3,3 C 92 % 1008,7 hPa 0,0 l/m 0 min 0 min 0 W/m 29,3 km/h (5 Bft)
11.12.2014 19:54 4,8 C 3,3 C 92 % 1008,8 hPa 0,0 l/m 0 min 0 min 0 W/m 33,5 km/h (5 Bft)
11.12.2014 19:56 4,8 C 3,3 C 92 % 1008,8 hPa 0,0 l/m 0 min 0 min 0 W/m 25,1 km/h (4 Bft)
11.12.2014 19:58 4,8 C 3,3 C 92 % 1008,8 hPa 0,0 l/m 0 min 0 min 0 W/m 31,4 km/h (5 Bft)
11.12.2014 20:00 4,8 C 3,3 C 92 % 1008,9 hPa 0,0 l/m 0 min 0 min 0 W/m 27,2 km/h (4 Bft)
11.12.2014 20:02 4,8 C 3,3 C 91 % 1008,8 hPa 0,0 l/m 0 min 0 min 0 W/m 27,2 km/h (4 Bft)
11.12.2014 20:04 4,8 C 3,3 C 91 % 1008,9 hPa 0,0 l/m 0 min 0 min 0 W/m 27,2 km/h (4 Bft)
11.12.2014 20:06 4,9 C 3,3 C 92 % 1008,9 hPa 0,0 l/m 0 min 0 min 0 W/m 27,2 km/h (4 Bft)
11.12.2014 20:08 4,9 C 3,3 C 92 % 1008,8 hPa 0,0 l/m 0 min 0 min 0 W/m 35,6 km/h (5 Bft)
11.12.2014 20:10 4,9 C 3,3 C 91 % 1008,9 hPa 0,0 l/m 0 min 0 min 0 W/m 35,6 km/h (5 Bft)
11.12.2014 20:12 4,9 C 3,9 C 92 % 1008,9 hPa 0,0 l/m 0 min 0 min 0 W/m 35,6 km/h (5 Bft)
11.12.2014 20:14 5,0 C 3,9 C 92 % 1008,9 hPa 0,0 l/m 0 min 0 min 0 W/m 29,3 km/h (5 Bft)
11.12.2014 20:16 5,0 C 3,9 C 91 % 1008,9 hPa 0,0 l/m 0 min 0 min 0 W/m 23,0 km/h (4 Bft)
11.12.2014 20:18 5,1 C 3,9 C 91 % 1009,0 hPa 0,0 l/m 0 min 0 min 0 W/m 23,0 km/h (4 Bft)
11.12.2014 20:20 5,1 C 3,3 C 91 % 1008,9 hPa 0,0 l/m 0 min 0 min 0 W/m 29,3 km/h (5 Bft)
11.12.2014 20:22 5,1 C 3,3 C 91 % 1008,8 hPa 0,0 l/m 0 min 0 min 0 W/m 27,2 km/h (4 Bft)
11.12.2014 20:24 5,1 C 3,9 C 91 % 1009,0 hPa 0,0 l/m 0 min 0 min 0 W/m 37,7 km/h (5 Bft)
11.12.2014 20:26 5,1 C 3,9 C 91 % 1008,9 hPa 0,0 l/m 0 min 0 min 0 W/m 33,5 km/h (5 Bft)
11.12.2014 20:28 5,2 C 3,9 C 92 % 1008,9 hPa 0,0 l/m 0 min 0 min 0 W/m 27,2 km/h (4 Bft)
11.12.2014 20:30 5,2 C 3,9 C 92 % 1008,9 hPa 0,0 l/m 0 min 0 min 0 W/m 27,2 km/h (4 Bft)
11.12.2014 20:32 5,3 C 3,9 C 92 % 1008,8 hPa 0,0 l/m 0 min 0 min 0 W/m 35,6 km/h (5 Bft)
11.12.2014 20:34 5,3 C 3,9 C 92 % 1008,8 hPa 0,0 l/m 0 min 0 min 0 W/m 29,3 km/h (5 Bft)
11.12.2014 20:36 5,3 C 3,9 C 92 % 1008,8 hPa 0,0 l/m 0 min 0 min 0 W/m 27,2 km/h (4 Bft)
11.12.2014 20:38 5,4 C 3,9 C 91 % 1008,9 hPa 0,0 l/m 0 min 0 min 0 W/m 27,2 km/h (4 Bft)
11.12.2014 20:40 5,4 C 3,9 C 91 % 1008,9 hPa 0,0 l/m 0 min 0 min 0 W/m 29,3 km/h (5 Bft)
11.12.2014 20:42 5,4 C 3,9 C 91 % 1008,8 hPa 0,0 l/m 0 min 0 min 0 W/m 27,2 km/h (4 Bft)
11.12.2014 20:44 5,4 C 3,9 C 91 % 1008,8 hPa 0,0 l/m 0 min 0 min 0 W/m 23,0 km/h (4 Bft)
11.12.2014 20:46 5,4 C 3,9 C 91 % 1008,8 hPa 0,0 l/m 0 min 0 min 0 W/m 35,6 km/h (5 Bft)
11.12.2014 20:48 5,5 C 3,9 C 91 % 1008,9 hPa 0,0 l/m 0 min 0 min 0 W/m 37,7 km/h (5 Bft)
11.12.2014 20:50 5,5 C 3,9 C 91 % 1008,9 hPa 0,0 l/m 0 min 0 min 0 W/m 31,4 km/h (5 Bft)
11.12.2014 20:52 5,5 C 3,9 C 91 % 1008,9 hPa 0,0 l/m 0 min 0 min 0 W/m 39,7 km/h (6 Bft)
11.12.2014 20:54 5,6 C 3,9 C 91 % 1008,8 hPa 0,0 l/m 0 min 0 min 0 W/m 33,5 km/h (5 Bft)
11.12.2014 20:56 5,6 C 4,4 C 91 % 1008,9 hPa 0,0 l/m 0 min 0 min 0 W/m 37,7 km/h (5 Bft)
11.12.2014 20:58 5,6 C 4,4 C 91 % 1008,8 hPa 0,0 l/m 0 min 0 min 0 W/m 35,6 km/h (5 Bft)
11.12.2014 21:00 5,6 C 4,4 C 91 % 1008,9 hPa 0,0 l/m 0 min 0 min 0 W/m 33,5 km/h (5 Bft)
11.12.2014 21:02 5,6 C 4,4 C 91 % 1008,9 hPa 0,0 l/m 0 min 0 min 0 W/m 35,6 km/h (5 Bft)
11.12.2014 21:04 5,7 C 4,4 C 91 % 1008,9 hPa 0,0 l/m 0 min 0 min 0 W/m 35,6 km/h (5 Bft)
11.12.2014 21:06 5,7 C 4,4 C 90 % 1009,0 hPa 0,0 l/m 0 min 0 min 0 W/m 33,5 km/h (5 Bft)
11.12.2014 21:08 5,7 C 4,4 C 91 % 1008,9 hPa 0,0 l/m 0 min 0 min 0 W/m 33,5 km/h (5 Bft)
11.12.2014 21:10 5,7 C 4,4 C 90 % 1008,9 hPa 0,0 l/m 0 min 0 min 0 W/m 43,9 km/h (6 Bft)
11.12.2014 21:12 5,7 C 4,4 C 90 % 1008,9 hPa 0,0 l/m 0 min 0 min 0 W/m 33,5 km/h (5 Bft)
11.12.2014 21:14 5,7 C 4,4 C 90 % 1008,9 hPa 0,0 l/m 0 min 0 min 0 W/m 25,1 km/h (4 Bft)
11.12.2014 21:16 5,8 C 4,4 C 90 % 1008,9 hPa 0,0 l/m 0 min 0 min 0 W/m 37,7 km/h (5 Bft)
11.12.2014 21:18 5,8 C 4,4 C 90 % 1008,9 hPa 0,0 l/m 0 min 0 min 0 W/m 29,3 km/h (5 Bft)
11.12.2014 21:20 5,8 C 4,4 C 90 % 1009,0 hPa 0,0 l/m 0 min 0 min 0 W/m 35,6 km/h (5 Bft)
11.12.2014 21:22 5,8 C 4,4 C 90 % 1009,0 hPa 0,0 l/m 0 min 0 min 0 W/m 43,9 km/h (6 Bft)
11.12.2014 21:24 5,8 C 4,4 C 89 % 1009,0 hPa 0,0 l/m 0 min 0 min 0 W/m 35,6 km/h (5 Bft)
11.12.2014 21:26 5,8 C 4,4 C 89 % 1008,9 hPa 0,0 l/m 0 min 0 min 0 W/m 29,3 km/h (5 Bft)
11.12.2014 21:28 5,8 C 4,4 C 89 % 1008,9 hPa 0,0 l/m 0 min 0 min 0 W/m 37,7 km/h (5 Bft)
11.12.2014 21:30 5,9 C 4,4 C 89 % 1009,0 hPa 0,0 l/m 0 min 0 min 0 W/m 27,2 km/h (4 Bft)
11.12.2014 21:32 5,9 C 4,4 C 89 % 1009,0 hPa 0,0 l/m 0 min 0 min 0 W/m 31,4 km/h (5 Bft)
11.12.2014 21:34 5,9 C 4,4 C 89 % 1009,0 hPa 0,0 l/m 0 min 0 min 0 W/m 27,2 km/h (4 Bft)
11.12.2014 21:36 5,9 C 4,4 C 89 % 1009,0 hPa 0,0 l/m 0 min 0 min 0 W/m 35,6 km/h (5 Bft)
11.12.2014 21:38 5,9 C 4,4 C 89 % 1009,0 hPa 0,0 l/m 0 min 0 min 0 W/m 25,1 km/h (4 Bft)
11.12.2014 21:40 5,9 C 4,4 C 89 % 1009,0 hPa 0,0 l/m 0 min 0 min 0 W/m 25,1 km/h (4 Bft)
11.12.2014 21:42 6,0 C 4,4 C 89 % 1008,9 hPa 0,0 l/m 0 min 0 min 0 W/m 27,2 km/h (4 Bft)
11.12.2014 21:44 6,0 C 4,4 C 89 % 1008,9 hPa 0,0 l/m 0 min 0 min 0 W/m 33,5 km/h (5 Bft)
11.12.2014 21:46 6,0 C 4,4 C 89 % 1008,8 hPa 0,0 l/m 0 min 0 min 0 W/m 33,5 km/h (5 Bft)
11.12.2014 21:48 6,1 C 4,4 C 89 % 1008,9 hPa 0,0 l/m 0 min 0 min 0 W/m 31,4 km/h (5 Bft)
11.12.2014 21:50 6,1 C 4,4 C 89 % 1008,8 hPa 0,0 l/m 0 min 0 min 0 W/m 27,2 km/h (4 Bft)
11.12.2014 21:52 6,1 C 4,4 C 89 % 1008,8 hPa 0,0 l/m 0 min 0 min 0 W/m 31,4 km/h (5 Bft)
11.12.2014 21:54 6,1 C 4,4 C 89 % 1008,8 hPa 0,0 l/m 0 min 0 min 0 W/m 29,3 km/h (5 Bft)
11.12.2014 21:56 6,1 C 4,4 C 89 % 1008,8 hPa 0,0 l/m 0 min 0 min 0 W/m 27,2 km/h (4 Bft)
11.12.2014 21:58 6,1 C 4,4 C 89 % 1008,8 hPa 0,0 l/m 0 min 0 min 0 W/m 23,0 km/h (4 Bft)
11.12.2014 22:00 6,1 C 4,4 C 89 % 1008,8 hPa 0,0 l/m 0 min 0 min 0 W/m 31,4 km/h (5 Bft)
11.12.2014 22:02 6,2 C 4,4 C 89 % 1008,8 hPa 0,0 l/m 0 min 0 min 0 W/m 27,2 km/h (4 Bft)
11.12.2014 22:04 6,2 C 4,4 C 89 % 1008,7 hPa 0,0 l/m 0 min 0 min 0 W/m 23,0 km/h (4 Bft)
11.12.2014 22:06 6,2 C 4,4 C 89 % 1008,8 hPa 0,0 l/m 0 min 0 min 0 W/m 20,9 km/h (4 Bft)
11.12.2014 22:08 6,2 C 4,4 C 89 % 1008,7 hPa 0,0 l/m 0 min 0 min 0 W/m 23,0 km/h (4 Bft)
11.12.2014 22:10 6,2 C 4,4 C 89 % 1008,7 hPa 0,0 l/m 0 min 0 min 0 W/m 23,0 km/h (4 Bft)
11.12.2014 22:12 6,2 C 4,4 C 89 % 1008,7 hPa 0,0 l/m 0 min 0 min 0 W/m 29,3 km/h (5 Bft)
11.12.2014 22:14 6,2 C 4,4 C 89 % 1008,7 hPa 0,0 l/m 0 min 0 min 0 W/m 33,5 km/h (5 Bft)
11.12.2014 22:16 6,2 C 4,4 C 89 % 1008,6 hPa 0,0 l/m 0 min 0 min 0 W/m 20,9 km/h (4 Bft)
11.12.2014 22:18 6,2 C 4,4 C 89 % 1008,5 hPa 0,0 l/m 0 min 0 min 0 W/m 23,0 km/h (4 Bft)
11.12.2014 22:20 6,2 C 4,4 C 89 % 1008,5 hPa 0,0 l/m 0 min 0 min 0 W/m 23,0 km/h (4 Bft)
11.12.2014 22:22 6,2 C 4,4 C 89 % 1008,6 hPa 0,0 l/m 0 min 0 min 0 W/m 27,2 km/h (4 Bft)
11.12.2014 22:24 6,2 C 5,0 C 89 % 1008,7 hPa 0,0 l/m 0 min 0 min 0 W/m 27,2 km/h (4 Bft)
11.12.2014 22:26 6,3 C 5,0 C 89 % 1008,6 hPa 0,0 l/m 0 min 0 min 0 W/m 29,3 km/h (5 Bft)
11.12.2014 22:28 6,3 C 5,0 C 89 % 1008,6 hPa 0,0 l/m 0 min 0 min 0 W/m 29,3 km/h (5 Bft)
11.12.2014 22:30 6,3 C 5,0 C 89 % 1008,6 hPa 0,0 l/m 0 min 0 min 0 W/m 35,6 km/h (5 Bft)
11.12.2014 22:32 6,3 C 5,0 C 89 % 1008,4 hPa 0,0 l/m 0 min 0 min 0 W/m 27,2 km/h (4 Bft)
11.12.2014 22:34 6,3 C 5,0 C 89 % 1008,5 hPa 0,0 l/m 0 min 0 min 0 W/m 33,5 km/h (5 Bft)
11.12.2014 22:36 6,4 C 5,0 C 89 % 1008,5 hPa 0,0 l/m 0 min 0 min 0 W/m 39,7 km/h (6 Bft)
11.12.2014 22:38 6,4 C 5,0 C 89 % 1008,4 hPa 0,0 l/m 0 min 0 min 0 W/m 25,1 km/h (4 Bft)
11.12.2014 22:40 6,4 C 5,0 C 89 % 1008,3 hPa 0,0 l/m 0 min 0 min 0 W/m 35,6 km/h (5 Bft)
11.12.2014 22:42 6,4 C 5,0 C 89 % 1008,3 hPa 0,0 l/m 0 min 0 min 0 W/m 35,6 km/h (5 Bft)
11.12.2014 22:44 6,4 C 5,0 C 89 % 1008,3 hPa 0,0 l/m 0 min 0 min 0 W/m 27,2 km/h (4 Bft)
11.12.2014 22:46 6,4 C 5,0 C 89 % 1008,3 hPa 0,0 l/m 0 min 0 min 0 W/m 41,8 km/h (6 Bft)
11.12.2014 22:48 6,5 C 5,0 C 89 % 1008,2 hPa 0,0 l/m 0 min 0 min 0 W/m 35,6 km/h (5 Bft)
11.12.2014 22:50 6,5 C 5,0 C 89 % 1008,2 hPa 0,0 l/m 0 min 0 min 0 W/m 39,7 km/h (6 Bft)
11.12.2014 22:52 6,6 C 5,0 C 89 % 1008,2 hPa 0,0 l/m 0 min 0 min 0 W/m 35,6 km/h (5 Bft)
11.12.2014 22:54 6,6 C 5,0 C 89 % 1008,2 hPa 0,0 l/m 0 min 0 min 0 W/m 33,5 km/h (5 Bft)
11.12.2014 22:56 6,6 C 5,0 C 89 % 1008,2 hPa 0,0 l/m 0 min 0 min 0 W/m 37,7 km/h (5 Bft)
11.12.2014 22:58 6,6 C 5,0 C 89 % 1008,2 hPa 0,0 l/m 0 min 0 min 0 W/m 35,6 km/h (5 Bft)
11.12.2014 23:00 6,7 C 5,0 C 88 % 1008,3 hPa 0,0 l/m 0 min 0 min 0 W/m 43,9 km/h (6 Bft)
11.12.2014 23:02 6,7 C 5,0 C 88 % 1008,3 hPa 0,0 l/m 0 min 0 min 0 W/m 33,5 km/h (5 Bft)
11.12.2014 23:04 6,7 C 5,0 C 88 % 1008,3 hPa 0,0 l/m 0 min 0 min 0 W/m 43,9 km/h (6 Bft)
11.12.2014 23:06 6,7 C 5,0 C 88 % 1008,3 hPa 0,0 l/m 0 min 0 min 0 W/m 37,7 km/h (5 Bft)
11.12.2014 23:08 6,8 C 5,0 C 88 % 1008,3 hPa 0,0 l/m 0 min 0 min 0 W/m 33,5 km/h (5 Bft)
11.12.2014 23:10 6,8 C 5,0 C 88 % 1008,3 hPa 0,0 l/m 0 min 0 min 0 W/m 41,8 km/h (6 Bft)
11.12.2014 23:12 6,8 C 5,6 C 88 % 1008,3 hPa 0,0 l/m 0 min 0 min 0 W/m 31,4 km/h (5 Bft)
11.12.2014 23:14 6,8 C 5,6 C 88 % 1008,3 hPa 0,0 l/m 0 min 0 min 0 W/m 33,5 km/h (5 Bft)
11.12.2014 23:16 6,8 C 5,6 C 88 % 1008,4 hPa 0,0 l/m 0 min 0 min 0 W/m 29,3 km/h (5 Bft)
11.12.2014 23:18 6,8 C 5,6 C 88 % 1008,4 hPa 0,0 l/m 0 min 0 min 0 W/m 37,7 km/h (5 Bft)
11.12.2014 23:20 6,8 C 5,6 C 88 % 1008,2 hPa 0,0 l/m 0 min 0 min 0 W/m 43,9 km/h (6 Bft)
11.12.2014 23:22 6,8 C 5,6 C 88 % 1008,2 hPa 0,0 l/m 0 min 0 min 0 W/m 31,4 km/h (5 Bft)
11.12.2014 23:24 6,9 C 5,6 C 88 % 1008,3 hPa 0,0 l/m 0 min 0 min 0 W/m 37,7 km/h (5 Bft)
11.12.2014 23:26 6,9 C 5,6 C 88 % 1008,2 hPa 0,0 l/m 0 min 0 min 0 W/m 27,2 km/h (4 Bft)
11.12.2014 23:28 6,9 C 5,6 C 88 % 1008,1 hPa 0,0 l/m 0 min 0 min 0 W/m 35,6 km/h (5 Bft)
11.12.2014 23:30 6,9 C 5,6 C 88 % 1008,1 hPa 0,0 l/m 0 min 0 min 0 W/m 39,7 km/h (6 Bft)
11.12.2014 23:32 6,9 C 5,6 C 88 % 1008,1 hPa 0,0 l/m 0 min 0 min 0 W/m 29,3 km/h (5 Bft)
11.12.2014 23:34 6,9 C 5,6 C 88 % 1008,1 hPa 0,0 l/m 0 min 0 min 0 W/m 33,5 km/h (5 Bft)
11.12.2014 23:36 7,0 C 5,6 C 88 % 1008,2 hPa 0,0 l/m 0 min 2 min 0 W/m 35,6 km/h (5 Bft)
11.12.2014 23:38 7,0 C 5,6 C 88 % 1008,1 hPa 0,0 l/m 0 min 2 min 0 W/m 39,7 km/h (6 Bft)
11.12.2014 23:40 7,0 C 5,6 C 88 % 1008,1 hPa 0,0 l/m 0 min 2 min 0 W/m 46,0 km/h (6 Bft)
11.12.2014 23:42 7,1 C 5,0 C 88 % 1008,1 hPa 0,0 l/m 0 min 0 min 0 W/m 35,6 km/h (5 Bft)
11.12.2014 23:44 7,1 C 5,6 C 88 % 1008,0 hPa 0,0 l/m 0 min 2 min 0 W/m 31,4 km/h (5 Bft)
11.12.2014 23:46 7,1 C 5,0 C 88 % 1008,0 hPa 0,0 l/m 0 min 2 min 0 W/m 23,0 km/h (4 Bft)
11.12.2014 23:48 7,1 C 5,0 C 88 % 1008,0 hPa 0,0 l/m 0 min 0 min 0 W/m 29,3 km/h (5 Bft)
11.12.2014 23:50 7,0 C 5,0 C 88 % 1007,9 hPa 0,0 l/m 0 min 0 min 0 W/m 31,4 km/h (5 Bft)
11.12.2014 23:52 7,0 C 5,0 C 88 % 1007,9 hPa 0,0 l/m 0 min 0 min 0 W/m 20,9 km/h (4 Bft)
11.12.2014 23:54 7,0 C 5,0 C 88 % 1007,9 hPa 0,0 l/m 0 min 0 min 0 W/m 33,5 km/h (5 Bft)
11.12.2014 23:56 7,0 C 5,0 C 88 % 1007,9 hPa 0,0 l/m 0 min 0 min 0 W/m 29,3 km/h (5 Bft)
11.12.2014 23:58 6,9 C 5,6 C 89 % 1007,9 hPa 0,0 l/m 0 min 0 min 0 W/m 41,8 km/h (6 Bft)
_ Min-Zeit 14:26 14:12 13:32 13:20 - - - - 01:18
Minimum _ 3,7 C 1,1 C 82 % 1005,6 hPa - - - - 12,6 km/h (3 Bft)
_ Max-Zeit 13:14 12:54 15:14 00:00 14:06 12:00 11:46 12:20 13:30
Maximum _ 8,0 C 7,2 C 94 % 1014,3 hPa 0,8 l/m 2 min 2 min 289 W/m 66,9 km/h
W-SW (8 Bft)
Durchschnitt _ 5,6 C 4,1 C 89 % 1009,0 hPa #4,6 l/m #42 min. #1:50 h 56 W/m 32,8 km/h (5 Bft)
© 2015 W. Hausmann